PWSweather.com
Personal Weather Stations
Station Observations
KGAMILLE3
Southwest Baldwin County, Milledgeville, GA 31061

Southwest Baldwin CountyMilledgeville, GA 31061

Lat: 32.9849557, Lon: -83.33361130000003

Elevation: 384

Station Type: Davis Vantage Pro 3

High Low Average
Temperature 80.5°F26.9°C 60.0°F15.6°C 65.9°F18.8°C
Dew Point 75.0°F23.9°C 58.1°F14.5°C 64.2°F17.9°C
Winds 14.0 mph 22.5 kmh Calm Calm 6.0 mph WSW9.7 kmh WSW
Wind Gusts 30.0 mph48.3 kmh 3.0 mph4.8 kmh 12.0 mph19.3 kmh
Humidity 98% 83% 94%
Pressure 30.00 in1015.9 mb 29.80 in1009.1 mb -
Precipitation 0.05 in1.3 mm - -
Hour Temp Dew Point Humidity Winds Wind Gusts Pressure Precip Precip Rate Daily Precip Total
08:24 AM 62.2°F16.8°C 61.3°F16.3°C 97% Calm Calm 3.0 mph4.8 kmh 29.97 in1014.9 mb 0.00 in0.0 mm 0.00 in0.0 mm 0.00 in0.0 mm
08:25 AM 67.3°F19.6°C 66.7°F19.3°C 98% 5.0 mph SW8.0 kmh SW 3.0 mph4.8 kmh 29.93 in1013.5 mb 0.00 in0.0 mm 0.00 in0.0 mm 0.00 in0.0 mm
08:28 AM 67.3°F19.6°C 66.7°F19.3°C 98% 4.0 mph SSW6.4 kmh SSW 6.0 mph9.7 kmh 29.93 in1013.5 mb 0.00 in0.0 mm 0.00 in0.0 mm 0.00 in0.0 mm
08:29 AM 67.3°F19.6°C 66.7°F19.3°C 98% 4.0 mph SSW6.4 kmh SSW 6.0 mph9.7 kmh 29.93 in1013.5 mb 0.00 in0.0 mm 0.00 in0.0 mm 0.00 in0.0 mm
08:35 AM 67.3°F19.6°C 66.7°F19.3°C 98% 3.0 mph SSW4.8 kmh SSW 7.0 mph11.3 kmh 29.93 in1013.5 mb 0.00 in0.0 mm 0.00 in0.0 mm 0.00 in0.0 mm
08:37 AM 67.4°F19.7°C 66.8°F19.3°C 98% 3.0 mph SSW4.8 kmh SSW 7.0 mph11.3 kmh 29.92 in1013.2 mb 0.00 in0.0 mm 0.00 in0.0 mm 0.00 in0.0 mm
08:39 AM 67.4°F19.7°C 66.8°F19.3°C 98% 4.0 mph SW6.4 kmh SW 8.0 mph12.9 kmh 29.93 in1013.5 mb 0.00 in0.0 mm 0.00 in0.0 mm 0.00 in0.0 mm
08:40 AM 67.4°F19.7°C 66.8°F19.3°C 98% 4.0 mph SSW6.4 kmh SSW 8.0 mph12.9 kmh 29.93 in1013.5 mb 0.00 in0.0 mm 0.00 in0.0 mm 0.00 in0.0 mm
08:41 AM 67.4°F19.7°C 66.8°F19.3°C 98% 4.0 mph SW6.4 kmh SW 8.0 mph12.9 kmh 29.93 in1013.5 mb 0.00 in0.0 mm 0.00 in0.0 mm 0.00 in0.0 mm
08:42 AM 67.4°F19.7°C 66.8°F19.3°C 98% 4.0 mph SW6.4 kmh SW 8.0 mph12.9 kmh 29.93 in1013.5 mb 0.00 in0.0 mm 0.00 in0.0 mm 0.00 in0.0 mm
08:43 AM 67.4°F19.7°C 66.8°F19.3°C 98% 4.0 mph SSW6.4 kmh SSW 8.0 mph12.9 kmh 29.93 in1013.5 mb 0.00 in0.0 mm 0.00 in0.0 mm 0.00 in0.0 mm
08:44 AM 67.4°F19.7°C 66.8°F19.3°C 98% 4.0 mph SSW6.4 kmh SSW 10.0 mph16.1 kmh 29.92 in1013.2 mb 0.00 in0.0 mm 0.00 in0.0 mm 0.00 in0.0 mm
08:45 AM 67.4°F19.7°C 66.8°F19.3°C 98% 4.0 mph SSW6.4 kmh SSW 10.0 mph16.1 kmh 29.93 in1013.5 mb 0.00 in0.0 mm 0.00 in0.0 mm 0.00 in0.0 mm
08:46 AM 67.4°F19.7°C 66.8°F19.3°C 98% 5.0 mph SSW8.0 kmh SSW 10.0 mph16.1 kmh 29.93 in1013.5 mb 0.00 in0.0 mm 0.00 in0.0 mm 0.00 in0.0 mm
08:47 AM 67.4°F19.7°C 66.8°F19.3°C 98% 5.0 mph SSW8.0 kmh SSW 10.0 mph16.1 kmh 29.93 in1013.5 mb 0.00 in0.0 mm 0.00 in0.0 mm 0.00 in0.0 mm
08:49 AM 67.5°F19.7°C 66.9°F19.4°C 98% 5.0 mph SSW8.0 kmh SSW 10.0 mph16.1 kmh 29.93 in1013.5 mb 0.00 in0.0 mm 0.00 in0.0 mm 0.00 in0.0 mm
08:52 AM 67.5°F19.7°C 66.9°F19.4°C 98% 5.0 mph SSW8.0 kmh SSW 10.0 mph16.1 kmh 29.93 in1013.5 mb 0.00 in0.0 mm 0.00 in0.0 mm 0.00 in0.0 mm
08:54 AM 67.6°F19.8°C 67.0°F19.4°C 98% 5.0 mph SSW8.0 kmh SSW 8.0 mph12.9 kmh 29.92 in1013.2 mb 0.00 in0.0 mm 0.00 in0.0 mm 0.00 in0.0 mm
08:55 AM 67.6°F19.8°C 67.0°F19.4°C 98% 5.0 mph SSW8.0 kmh SSW 8.0 mph12.9 kmh 29.92 in1013.2 mb 0.00 in0.0 mm 0.00 in0.0 mm 0.00 in0.0 mm
08:56 AM 67.6°F19.8°C 67.0°F19.4°C 98% 5.0 mph SSW8.0 kmh SSW 8.0 mph12.9 kmh 29.92 in1013.2 mb 0.00 in0.0 mm 0.00 in0.0 mm 0.00 in0.0 mm
08:58 AM 67.6°F19.8°C 67.0°F19.4°C 98% 5.0 mph SSW8.0 kmh SSW 11.0 mph17.7 kmh 29.92 in1013.2 mb 0.00 in0.0 mm 0.00 in0.0 mm 0.00 in0.0 mm
08:59 AM 67.7°F19.8°C 67.1°F19.5°C 98% 5.0 mph SSW8.0 kmh SSW 11.0 mph17.7 kmh 29.92 in1013.2 mb 0.00 in0.0 mm 0.00 in0.0 mm 0.00 in0.0 mm
09:02 AM 67.7°F19.8°C 67.1°F19.5°C 98% 5.0 mph SSW8.0 kmh SSW 11.0 mph17.7 kmh 29.92 in1013.2 mb 0.00 in0.0 mm 0.00 in0.0 mm 0.00 in0.0 mm
09:03 AM 67.7°F19.8°C 67.1°F19.5°C 98% 6.0 mph SSW9.7 kmh SSW 12.0 mph19.3 kmh 29.92 in1013.2 mb 0.00 in0.0 mm 0.00 in0.0 mm 0.00 in0.0 mm
09:04 AM 67.7°F19.8°C 67.1°F19.5°C 98% 6.0 mph SSW9.7 kmh SSW 12.0 mph19.3 kmh 29.92 in1013.2 mb 0.00 in0.0 mm 0.00 in0.0 mm 0.00 in0.0 mm
09:05 AM 67.7°F19.8°C 67.1°F19.5°C 98% 6.0 mph SSW9.7 kmh SSW 12.0 mph19.3 kmh 29.93 in1013.5 mb 0.00 in0.0 mm 0.00 in0.0 mm 0.00 in0.0 mm
09:06 AM 67.8°F19.9°C 67.2°F19.6°C 98% 6.0 mph SSW9.7 kmh SSW 12.0 mph19.3 kmh 29.93 in1013.5 mb 0.00 in0.0 mm 0.00 in0.0 mm 0.00 in0.0 mm
09:07 AM 67.8°F19.9°C 67.2°F19.6°C 98% 6.0 mph SSW9.7 kmh SSW 12.0 mph19.3 kmh 29.93 in1013.5 mb 0.00 in0.0 mm 0.00 in0.0 mm 0.00 in0.0 mm
09:09 AM 67.8°F19.9°C 67.2°F19.6°C 98% 6.0 mph SSW9.7 kmh SSW 12.0 mph19.3 kmh 29.93 in1013.5 mb 0.00 in0.0 mm 0.00 in0.0 mm 0.00 in0.0 mm
09:10 AM 67.8°F19.9°C 67.2°F19.6°C 98% 6.0 mph SSW9.7 kmh SSW 12.0 mph19.3 kmh 29.92 in1013.2 mb 0.00 in0.0 mm 0.00 in0.0 mm 0.00 in0.0 mm
09:11 AM 67.8°F19.9°C 67.2°F19.6°C 98% 6.0 mph SSW9.7 kmh SSW 12.0 mph19.3 kmh 29.92 in1013.2 mb 0.00 in0.0 mm 0.00 in0.0 mm 0.00 in0.0 mm
09:12 AM 67.9°F19.9°C 67.3°F19.6°C 98% 6.0 mph SSW9.7 kmh SSW 12.0 mph19.3 kmh 29.92 in1013.2 mb 0.00 in0.0 mm 0.00 in0.0 mm 0.00 in0.0 mm
09:13 AM 67.9°F19.9°C 67.3°F19.6°C 98% 6.0 mph SSW9.7 kmh SSW 10.0 mph16.1 kmh 29.92 in1013.2 mb 0.00 in0.0 mm 0.00 in0.0 mm 0.00 in0.0 mm
09:14 AM 67.9°F19.9°C 67.0°F19.4°C 97% 5.0 mph SSW8.0 kmh SSW 10.0 mph16.1 kmh 29.92 in1013.2 mb 0.00 in0.0 mm 0.00 in0.0 mm 0.00 in0.0 mm
09:16 AM 67.9°F19.9°C 67.0°F19.4°C 97% 5.0 mph SSW8.0 kmh SSW 10.0 mph16.1 kmh 29.92 in1013.2 mb 0.00 in0.0 mm 0.00 in0.0 mm 0.00 in0.0 mm
09:17 AM 67.9°F19.9°C 67.0°F19.4°C 97% 5.0 mph SSW8.0 kmh SSW 10.0 mph16.1 kmh 29.92 in1013.2 mb 0.00 in0.0 mm 0.00 in0.0 mm 0.00 in0.0 mm
09:18 AM 67.9°F19.9°C 67.0°F19.4°C 97% 5.0 mph SSW8.0 kmh SSW 10.0 mph16.1 kmh 29.92 in1013.2 mb 0.00 in0.0 mm 0.00 in0.0 mm 0.00 in0.0 mm
09:20 AM 68.0°F20.0°C 67.4°F19.7°C 98% 5.0 mph S8.0 kmh S 10.0 mph16.1 kmh 29.92 in1013.2 mb 0.00 in0.0 mm 0.00 in0.0 mm 0.00 in0.0 mm
09:21 AM 68.0°F20.0°C 67.4°F19.7°C 98% 6.0 mph S9.7 kmh S 10.0 mph16.1 kmh 29.92 in1013.2 mb 0.00 in0.0 mm 0.00 in0.0 mm 0.00 in0.0 mm
09:22 AM 68.0°F20.0°C 67.4°F19.7°C 98% 6.0 mph S9.7 kmh S 10.0 mph16.1 kmh 29.93 in1013.5 mb 0.00 in0.0 mm 0.00 in0.0 mm 0.00 in0.0 mm
09:23 AM 68.1°F20.1°C 67.5°F19.7°C 98% 6.0 mph S9.7 kmh S 9.0 mph14.5 kmh 29.92 in1013.2 mb 0.00 in0.0 mm 0.00 in0.0 mm 0.00 in0.0 mm
09:25 AM 68.1°F20.1°C 67.5°F19.7°C 98% 6.0 mph SSW9.7 kmh SSW 9.0 mph14.5 kmh 29.92 in1013.2 mb 0.00 in0.0 mm 0.00 in0.0 mm 0.00 in0.0 mm
09:26 AM 68.1°F20.1°C 67.5°F19.7°C 98% 6.0 mph SSW9.7 kmh SSW 9.0 mph14.5 kmh 29.92 in1013.2 mb 0.00 in0.0 mm 0.00 in0.0 mm 0.00 in0.0 mm
09:29 AM 68.2°F20.1°C 67.6°F19.8°C 98% 6.0 mph SSW9.7 kmh SSW 10.0 mph16.1 kmh 29.91 in1012.9 mb 0.00 in0.0 mm 0.00 in0.0 mm 0.00 in0.0 mm
09:32 AM 68.3°F20.2°C 67.7°F19.8°C 98% 6.0 mph SSW9.7 kmh SSW 10.0 mph16.1 kmh 29.91 in1012.9 mb 0.00 in0.0 mm 0.00 in0.0 mm 0.00 in0.0 mm
09:34 AM 68.3°F20.2°C 67.4°F19.7°C 97% 6.0 mph SSW9.7 kmh SSW 10.0 mph16.1 kmh 29.91 in1012.9 mb 0.00 in0.0 mm 0.00 in0.0 mm 0.00 in0.0 mm
09:35 AM 68.3°F20.2°C 67.4°F19.7°C 97% 6.0 mph SSW9.7 kmh SSW 10.0 mph16.1 kmh 29.91 in1012.9 mb 0.00 in0.0 mm 0.00 in0.0 mm 0.00 in0.0 mm
09:38 AM 68.4°F20.2°C 67.5°F19.7°C 97% 6.0 mph SSW9.7 kmh SSW 11.0 mph17.7 kmh 29.91 in1012.9 mb 0.00 in0.0 mm 0.00 in0.0 mm 0.00 in0.0 mm
09:39 AM 68.4°F20.2°C 67.5°F19.7°C 97% 6.0 mph SSW9.7 kmh SSW 12.0 mph19.3 kmh 29.91 in1012.9 mb 0.00 in0.0 mm 0.00 in0.0 mm 0.00 in0.0 mm
09:42 AM 68.5°F20.3°C 67.6°F19.8°C 97% 6.0 mph SSW9.7 kmh SSW 12.0 mph19.3 kmh 29.92 in1013.2 mb 0.00 in0.0 mm 0.00 in0.0 mm 0.00 in0.0 mm
09:43 AM 68.5°F20.3°C 67.6°F19.8°C 97% 6.0 mph SSW9.7 kmh SSW 12.0 mph19.3 kmh 29.92 in1013.2 mb 0.00 in0.0 mm 0.00 in0.0 mm 0.00 in0.0 mm
09:45 AM 68.6°F20.3°C 67.7°F19.8°C 97% 6.0 mph SSW9.7 kmh SSW 12.0 mph19.3 kmh 29.92 in1013.2 mb 0.00 in0.0 mm 0.00 in0.0 mm 0.00 in0.0 mm
09:47 AM 68.6°F20.3°C 67.7°F19.8°C 97% 6.0 mph SSW9.7 kmh SSW 12.0 mph19.3 kmh 29.92 in1013.2 mb 0.00 in0.0 mm 0.00 in0.0 mm 0.00 in0.0 mm
09:48 AM 68.7°F20.4°C 68.1°F20.1°C 98% 6.0 mph SSW9.7 kmh SSW 12.0 mph19.3 kmh 29.92 in1013.2 mb 0.00 in0.0 mm 0.00 in0.0 mm 0.00 in0.0 mm
09:49 AM 68.7°F20.4°C 68.1°F20.1°C 98% 6.0 mph SSW9.7 kmh SSW 11.0 mph17.7 kmh 29.92 in1013.2 mb 0.00 in0.0 mm 0.00 in0.0 mm 0.00 in0.0 mm
09:50 AM 68.8°F20.4°C 68.2°F20.1°C 98% 6.0 mph SSW9.7 kmh SSW 11.0 mph17.7 kmh 29.92 in1013.2 mb 0.00 in0.0 mm 0.00 in0.0 mm 0.00 in0.0 mm
09:51 AM 68.8°F20.4°C 67.9°F19.9°C 97% 6.0 mph SSW9.7 kmh SSW 11.0 mph17.7 kmh 29.92 in1013.2 mb 0.00 in0.0 mm 0.00 in0.0 mm 0.00 in0.0 mm
09:52 AM 68.8°F20.4°C 68.2°F20.1°C 98% 6.0 mph SSW9.7 kmh SSW 11.0 mph17.7 kmh 29.92 in1013.2 mb 0.00 in0.0 mm 0.00 in0.0 mm 0.00 in0.0 mm
09:53 AM 68.9°F20.5°C 68.3°F20.2°C 98% 6.0 mph S9.7 kmh S 11.0 mph17.7 kmh 29.92 in1013.2 mb 0.00 in0.0 mm 0.00 in0.0 mm 0.00 in0.0 mm
09:54 AM 68.9°F20.5°C 68.3°F20.2°C 98% 6.0 mph S9.7 kmh S 10.0 mph16.1 kmh 29.92 in1013.2 mb 0.00 in0.0 mm 0.00 in0.0 mm 0.00 in0.0 mm
09:55 AM 68.9°F20.5°C 68.3°F20.2°C 98% 6.0 mph S9.7 kmh S 10.0 mph16.1 kmh 29.91 in1012.9 mb 0.00 in0.0 mm 0.00 in0.0 mm 0.00 in0.0 mm
09:56 AM 69.0°F20.6°C 68.1°F20.1°C 97% 6.0 mph S9.7 kmh S 16.0 mph25.7 kmh 29.91 in1012.9 mb 0.00 in0.0 mm 0.00 in0.0 mm 0.00 in0.0 mm
09:57 AM 69.0°F20.6°C 68.4°F20.2°C 98% 6.0 mph S9.7 kmh S 16.0 mph25.7 kmh 29.91 in1012.9 mb 0.00 in0.0 mm 0.00 in0.0 mm 0.00 in0.0 mm
09:58 AM 69.0°F20.6°C 68.4°F20.2°C 98% 6.0 mph S9.7 kmh S 16.0 mph25.7 kmh 29.91 in1012.9 mb 0.00 in0.0 mm 0.00 in0.0 mm 0.00 in0.0 mm
09:59 AM 69.0°F20.6°C 68.1°F20.1°C 97% 6.0 mph S9.7 kmh S 16.0 mph25.7 kmh 29.91 in1012.9 mb 0.00 in0.0 mm 0.00 in0.0 mm 0.00 in0.0 mm
10:00 AM 69.1°F20.6°C 68.2°F20.1°C 97% 7.0 mph S11.3 kmh S 16.0 mph25.7 kmh 29.91 in1012.9 mb 0.00 in0.0 mm 0.00 in0.0 mm 0.00 in0.0 mm
10:01 AM 69.1°F20.6°C 68.2°F20.1°C 97% 7.0 mph S11.3 kmh S 16.0 mph25.7 kmh 29.91 in1012.9 mb 0.00 in0.0 mm 0.00 in0.0 mm 0.00 in0.0 mm
10:02 AM 69.1°F20.6°C 68.2°F20.1°C 97% 7.0 mph S11.3 kmh S 16.0 mph25.7 kmh 29.91 in1012.9 mb 0.00 in0.0 mm 0.00 in0.0 mm 0.00 in0.0 mm
10:04 AM 69.2°F20.7°C 68.3°F20.2°C 97% 7.0 mph SSW11.3 kmh SSW 16.0 mph25.7 kmh 29.91 in1012.9 mb 0.00 in0.0 mm 0.00 in0.0 mm 0.00 in0.0 mm
10:05 AM 69.2°F20.7°C 68.3°F20.2°C 97% 7.0 mph SSW11.3 kmh SSW 16.0 mph25.7 kmh 29.91 in1012.9 mb 0.00 in0.0 mm 0.00 in0.0 mm 0.00 in0.0 mm
10:06 AM 69.3°F20.7°C 68.4°F20.2°C 97% 6.0 mph S9.7 kmh S 11.0 mph17.7 kmh 29.91 in1012.9 mb 0.00 in0.0 mm 0.00 in0.0 mm 0.00 in0.0 mm
10:08 AM 69.4°F20.8°C 68.5°F20.3°C 97% 6.0 mph S9.7 kmh S 11.0 mph17.7 kmh 29.91 in1012.9 mb 0.00 in0.0 mm 0.00 in0.0 mm 0.00 in0.0 mm
10:11 AM 69.5°F20.8°C 68.9°F20.5°C 98% 7.0 mph SSW11.3 kmh SSW 13.0 mph20.9 kmh 29.91 in1012.9 mb 0.00 in0.0 mm 0.00 in0.0 mm 0.00 in0.0 mm
10:12 AM 69.5°F20.8°C 68.9°F20.5°C 98% 7.0 mph SSW11.3 kmh SSW 13.0 mph20.9 kmh 29.91 in1012.9 mb 0.00 in0.0 mm 0.00 in0.0 mm 0.00 in0.0 mm
10:13 AM 69.6°F20.9°C 69.0°F20.6°C 98% 7.0 mph SSW11.3 kmh SSW 13.0 mph20.9 kmh 29.91 in1012.9 mb 0.00 in0.0 mm 0.00 in0.0 mm 0.00 in0.0 mm
10:16 AM 69.7°F20.9°C 69.1°F20.6°C 98% 7.0 mph SSW11.3 kmh SSW 13.0 mph20.9 kmh 29.91 in1012.9 mb 0.00 in0.0 mm 0.00 in0.0 mm 0.00 in0.0 mm
10:18 AM 69.7°F20.9°C 69.1°F20.6°C 98% 7.0 mph SSW11.3 kmh SSW 13.0 mph20.9 kmh 29.91 in1012.9 mb 0.00 in0.0 mm 0.00 in0.0 mm 0.00 in0.0 mm
10:19 AM 69.8°F21.0°C 69.2°F20.7°C 98% 7.0 mph SSW11.3 kmh SSW 13.0 mph20.9 kmh 29.91 in1012.9 mb 0.00 in0.0 mm 0.00 in0.0 mm 0.00 in0.0 mm
10:21 AM 69.8°F21.0°C 69.2°F20.7°C 98% 7.0 mph SSW11.3 kmh SSW 14.0 mph22.5 kmh 29.91 in1012.9 mb 0.00 in0.0 mm 0.00 in0.0 mm 0.00 in0.0 mm
10:22 AM 69.9°F21.1°C 69.0°F20.6°C 97% 7.0 mph SSW11.3 kmh SSW 14.0 mph22.5 kmh 29.91 in1012.9 mb 0.00 in0.0 mm 0.00 in0.0 mm 0.00 in0.0 mm
10:23 AM 69.9°F21.1°C 69.0°F20.6°C 97% 7.0 mph SSW11.3 kmh SSW 14.0 mph22.5 kmh 29.91 in1012.9 mb 0.00 in0.0 mm 0.00 in0.0 mm 0.00 in0.0 mm
10:24 AM 69.9°F21.1°C 69.0°F20.6°C 97% 7.0 mph SSW11.3 kmh SSW 14.0 mph22.5 kmh 29.91 in1012.9 mb 0.00 in0.0 mm 0.00 in0.0 mm 0.00 in0.0 mm
10:25 AM 69.9°F21.1°C 69.0°F20.6°C 97% 7.0 mph SSW11.3 kmh SSW 14.0 mph22.5 kmh 29.91 in1012.9 mb 0.00 in0.0 mm 0.00 in0.0 mm 0.00 in0.0 mm
10:28 AM 70.0°F21.1°C 69.1°F20.6°C 97% 7.0 mph SSW11.3 kmh SSW 14.0 mph22.5 kmh 29.91 in1012.9 mb 0.00 in0.0 mm 0.00 in0.0 mm 0.00 in0.0 mm
10:29 AM 70.0°F21.1°C 69.1°F20.6°C 97% 7.0 mph SSW11.3 kmh SSW 14.0 mph22.5 kmh 29.91 in1012.9 mb 0.00 in0.0 mm 0.00 in0.0 mm 0.00 in0.0 mm
10:30 AM 70.0°F21.1°C 69.1°F20.6°C 97% 7.0 mph SSW11.3 kmh SSW 14.0 mph22.5 kmh 29.91 in1012.9 mb 0.00 in0.0 mm 0.00 in0.0 mm 0.00 in0.0 mm
10:31 AM 70.0°F21.1°C 69.1°F20.6°C 97% 7.0 mph SSW11.3 kmh SSW 14.0 mph22.5 kmh 29.91 in1012.9 mb 0.00 in0.0 mm 0.00 in0.0 mm 0.00 in0.0 mm
10:32 AM 70.1°F21.2°C 69.2°F20.7°C 97% 7.0 mph SSW11.3 kmh SSW 14.0 mph22.5 kmh 29.91 in1012.9 mb 0.00 in0.0 mm 0.00 in0.0 mm 0.00 in0.0 mm
10:33 AM 70.1°F21.2°C 69.2°F20.7°C 97% 7.0 mph SSW11.3 kmh SSW 18.0 mph29.0 kmh 29.91 in1012.9 mb 0.00 in0.0 mm 0.00 in0.0 mm 0.00 in0.0 mm
10:34 AM 70.1°F21.2°C 69.2°F20.7°C 97% 7.0 mph SSW11.3 kmh SSW 18.0 mph29.0 kmh 29.91 in1012.9 mb 0.00 in0.0 mm 0.00 in0.0 mm 0.00 in0.0 mm
10:35 AM 70.1°F21.2°C 69.2°F20.7°C 97% 7.0 mph SSW11.3 kmh SSW 18.0 mph29.0 kmh 29.91 in1012.9 mb 0.00 in0.0 mm 0.00 in0.0 mm 0.00 in0.0 mm
10:36 AM 70.1°F21.2°C 69.2°F20.7°C 97% 8.0 mph SSW12.9 kmh SSW 18.0 mph29.0 kmh 29.91 in1012.9 mb 0.00 in0.0 mm 0.00 in0.0 mm 0.00 in0.0 mm
10:37 AM 70.2°F21.2°C 69.3°F20.7°C 97% 8.0 mph SSW12.9 kmh SSW 18.0 mph29.0 kmh 29.91 in1012.9 mb 0.00 in0.0 mm 0.00 in0.0 mm 0.00 in0.0 mm
10:38 AM 70.2°F21.2°C 69.3°F20.7°C 97% 8.0 mph SSW12.9 kmh SSW 18.0 mph29.0 kmh 29.91 in1012.9 mb 0.00 in0.0 mm 0.00 in0.0 mm 0.00 in0.0 mm
10:39 AM 70.2°F21.2°C 69.6°F20.9°C 98% 8.0 mph SSW12.9 kmh SSW 18.0 mph29.0 kmh 29.91 in1012.9 mb 0.00 in0.0 mm 0.00 in0.0 mm 0.00 in0.0 mm
10:40 AM 70.2°F21.2°C 69.6°F20.9°C 98% 8.0 mph SSW12.9 kmh SSW 18.0 mph29.0 kmh 29.91 in1012.9 mb 0.00 in0.0 mm 0.00 in0.0 mm 0.00 in0.0 mm
10:42 AM 70.3°F21.3°C 69.7°F20.9°C 98% 9.0 mph SSW14.5 kmh SSW 18.0 mph29.0 kmh 29.91 in1012.9 mb 0.00 in0.0 mm 0.00 in0.0 mm 0.00 in0.0 mm
10:45 AM 70.4°F21.3°C 69.8°F21.0°C 98% 10.0 mph SSW16.1 kmh SSW 24.0 mph38.6 kmh 29.91 in1012.9 mb 0.00 in0.0 mm 0.00 in0.0 mm 0.00 in0.0 mm
10:46 AM 70.4°F21.3°C 69.8°F21.0°C 98% 10.0 mph SSW16.1 kmh SSW 24.0 mph38.6 kmh 29.91 in1012.9 mb 0.00 in0.0 mm 0.00 in0.0 mm 0.00 in0.0 mm
10:47 AM 70.5°F21.4°C 69.9°F21.1°C 98% 9.0 mph SSW14.5 kmh SSW 24.0 mph38.6 kmh 29.91 in1012.9 mb 0.00 in0.0 mm 0.00 in0.0 mm 0.00 in0.0 mm
10:48 AM 70.5°F21.4°C 69.9°F21.1°C 98% 9.0 mph SSW14.5 kmh SSW 24.0 mph38.6 kmh 29.91 in1012.9 mb 0.00 in0.0 mm 0.00 in0.0 mm 0.00 in0.0 mm
10:49 AM 70.6°F21.4°C 70.0°F21.1°C 98% 9.0 mph SSW14.5 kmh SSW 24.0 mph38.6 kmh 29.91 in1012.9 mb 0.00 in0.0 mm 0.00 in0.0 mm 0.00 in0.0 mm
10:50 AM 70.6°F21.4°C 70.0°F21.1°C 98% 9.0 mph SSW14.5 kmh SSW 24.0 mph38.6 kmh 29.91 in1012.9 mb 0.00 in0.0 mm 0.00 in0.0 mm 0.00 in0.0 mm
10:51 AM 70.6°F21.4°C 70.0°F21.1°C 98% 9.0 mph SSW14.5 kmh SSW 24.0 mph38.6 kmh 29.91 in1012.9 mb 0.00 in0.0 mm 0.00 in0.0 mm 0.00 in0.0 mm
10:52 AM 70.7°F21.5°C 70.1°F21.2°C 98% 8.0 mph SSW12.9 kmh SSW 24.0 mph38.6 kmh 29.91 in1012.9 mb 0.00 in0.0 mm 0.00 in0.0 mm 0.00 in0.0 mm
10:53 AM 70.7°F21.5°C 70.1°F21.2°C 98% 7.0 mph SW11.3 kmh SW 13.0 mph20.9 kmh 29.91 in1012.9 mb 0.00 in0.0 mm 0.00 in0.0 mm 0.00 in0.0 mm
10:58 AM 71.0°F21.7°C 70.4°F21.3°C 98% 8.0 mph SSW12.9 kmh SSW 20.0 mph32.2 kmh 29.89 in1012.2 mb 0.00 in0.0 mm 0.00 in0.0 mm 0.00 in0.0 mm
10:59 AM 71.1°F21.7°C 70.5°F21.4°C 98% 8.0 mph SSW12.9 kmh SSW 20.0 mph32.2 kmh 29.90 in1012.5 mb 0.00 in0.0 mm 0.00 in0.0 mm 0.00 in0.0 mm
11:03 AM 71.3°F21.8°C 70.7°F21.5°C 98% 9.0 mph SSW14.5 kmh SSW 20.0 mph32.2 kmh 29.90 in1012.5 mb 0.00 in0.0 mm 0.00 in0.0 mm 0.00 in0.0 mm
11:04 AM 71.4°F21.9°C 70.5°F21.4°C 97% 8.0 mph SSW12.9 kmh SSW 20.0 mph32.2 kmh 29.90 in1012.5 mb 0.00 in0.0 mm 0.00 in0.0 mm 0.00 in0.0 mm
11:05 AM 71.4°F21.9°C 70.5°F21.4°C 97% 8.0 mph SSW12.9 kmh SSW 20.0 mph32.2 kmh 29.90 in1012.5 mb 0.00 in0.0 mm 0.00 in0.0 mm 0.00 in0.0 mm
11:08 AM 71.5°F21.9°C 70.6°F21.4°C 97% 8.0 mph SW12.9 kmh SW 15.0 mph24.1 kmh 29.89 in1012.2 mb 0.00 in0.0 mm 0.00 in0.0 mm 0.00 in0.0 mm
11:14 AM 71.8°F22.1°C 71.2°F21.8°C 98% 9.0 mph SW14.5 kmh SW 19.0 mph30.6 kmh 29.89 in1012.2 mb 0.00 in0.0 mm 0.00 in0.0 mm 0.00 in0.0 mm
11:20 AM 72.2°F22.3°C 71.3°F21.8°C 97% 10.0 mph SW16.1 kmh SW 19.0 mph30.6 kmh 29.89 in1012.2 mb 0.00 in0.0 mm 0.00 in0.0 mm 0.00 in0.0 mm
11:23 AM 72.4°F22.4°C 71.5°F21.9°C 97% 11.0 mph SW17.7 kmh SW 20.0 mph32.2 kmh 29.89 in1012.2 mb 0.00 in0.0 mm 0.00 in0.0 mm 0.00 in0.0 mm
11:24 AM 72.4°F22.4°C 71.5°F21.9°C 97% 11.0 mph SW17.7 kmh SW 20.0 mph32.2 kmh 29.89 in1012.2 mb 0.00 in0.0 mm 0.00 in0.0 mm 0.00 in0.0 mm
11:25 AM 72.4°F22.4°C 71.5°F21.9°C 97% 11.0 mph SW17.7 kmh SW 20.0 mph32.2 kmh 29.89 in1012.2 mb 0.00 in0.0 mm 0.00 in0.0 mm 0.00 in0.0 mm
11:26 AM 72.5°F22.5°C 71.6°F22.0°C 97% 11.0 mph SW17.7 kmh SW 20.0 mph32.2 kmh 29.89 in1012.2 mb 0.00 in0.0 mm 0.00 in0.0 mm 0.00 in0.0 mm
11:27 AM 72.5°F22.5°C 71.6°F22.0°C 97% 11.0 mph SSW17.7 kmh SSW 20.0 mph32.2 kmh 29.89 in1012.2 mb 0.00 in0.0 mm 0.00 in0.0 mm 0.00 in0.0 mm
11:28 AM 72.5°F22.5°C 71.6°F22.0°C 97% 11.0 mph SSW17.7 kmh SSW 20.0 mph32.2 kmh 29.89 in1012.2 mb 0.00 in0.0 mm 0.00 in0.0 mm 0.00 in0.0 mm
11:29 AM 72.5°F22.5°C 71.6°F22.0°C 97% 11.0 mph SSW17.7 kmh SSW 20.0 mph32.2 kmh 29.89 in1012.2 mb 0.00 in0.0 mm 0.00 in0.0 mm 0.00 in0.0 mm
11:31 AM 72.6°F22.6°C 71.7°F22.1°C 97% 11.0 mph SSW17.7 kmh SSW 20.0 mph32.2 kmh 29.89 in1012.2 mb 0.00 in0.0 mm 0.00 in0.0 mm 0.00 in0.0 mm
11:32 AM 72.6°F22.6°C 71.7°F22.1°C 97% 10.0 mph SSW16.1 kmh SSW 18.0 mph29.0 kmh 29.89 in1012.2 mb 0.00 in0.0 mm 0.00 in0.0 mm 0.00 in0.0 mm
11:33 AM 72.6°F22.6°C 71.7°F22.1°C 97% 10.0 mph SSW16.1 kmh SSW 18.0 mph29.0 kmh 29.89 in1012.2 mb 0.00 in0.0 mm 0.00 in0.0 mm 0.00 in0.0 mm
11:34 AM 72.6°F22.6°C 71.7°F22.1°C 97% 9.0 mph SSW14.5 kmh SSW 18.0 mph29.0 kmh 29.89 in1012.2 mb 0.00 in0.0 mm 0.00 in0.0 mm 0.00 in0.0 mm
11:35 AM 72.7°F22.6°C 71.8°F22.1°C 97% 9.0 mph SSW14.5 kmh SSW 17.0 mph27.4 kmh 29.89 in1012.2 mb 0.00 in0.0 mm 0.00 in0.0 mm 0.00 in0.0 mm
11:36 AM 72.7°F22.6°C 71.8°F22.1°C 97% 9.0 mph SSW14.5 kmh SSW 19.0 mph30.6 kmh 29.89 in1012.2 mb 0.00 in0.0 mm 0.00 in0.0 mm 0.00 in0.0 mm
11:37 AM 72.7°F22.6°C 71.8°F22.1°C 97% 9.0 mph SSW14.5 kmh SSW 19.0 mph30.6 kmh 29.89 in1012.2 mb 0.00 in0.0 mm 0.00 in0.0 mm 0.00 in0.0 mm
11:38 AM 72.8°F22.7°C 71.9°F22.2°C 97% 9.0 mph SSW14.5 kmh SSW 19.0 mph30.6 kmh 29.89 in1012.2 mb 0.00 in0.0 mm 0.00 in0.0 mm 0.00 in0.0 mm
11:39 AM 72.8°F22.7°C 71.9°F22.2°C 97% 10.0 mph SW16.1 kmh SW 19.0 mph30.6 kmh 29.89 in1012.2 mb 0.00 in0.0 mm 0.00 in0.0 mm 0.00 in0.0 mm
11:40 AM 72.9°F22.7°C 72.0°F22.2°C 97% 10.0 mph SSW16.1 kmh SSW 19.0 mph30.6 kmh 29.89 in1012.2 mb 0.00 in0.0 mm 0.00 in0.0 mm 0.00 in0.0 mm
11:42 AM 73.0°F22.8°C 71.8°F22.1°C 96% 9.0 mph SW14.5 kmh SW 19.0 mph30.6 kmh 29.89 in1012.2 mb 0.00 in0.0 mm 0.00 in0.0 mm 0.00 in0.0 mm
11:43 AM 73.0°F22.8°C 71.8°F22.1°C 96% 10.0 mph SW16.1 kmh SW 19.0 mph30.6 kmh 29.89 in1012.2 mb 0.00 in0.0 mm 0.00 in0.0 mm 0.00 in0.0 mm
11:44 AM 73.0°F22.8°C 71.8°F22.1°C 96% 10.0 mph SW16.1 kmh SW 19.0 mph30.6 kmh 29.89 in1012.2 mb 0.00 in0.0 mm 0.00 in0.0 mm 0.00 in0.0 mm
11:46 AM 73.0°F22.8°C 71.8°F22.1°C 96% 10.0 mph SW16.1 kmh SW 18.0 mph29.0 kmh 29.89 in1012.2 mb 0.00 in0.0 mm 0.00 in0.0 mm 0.00 in0.0 mm
11:47 AM 73.0°F22.8°C 71.8°F22.1°C 96% 10.0 mph SW16.1 kmh SW 18.0 mph29.0 kmh 29.89 in1012.2 mb 0.00 in0.0 mm 0.00 in0.0 mm 0.00 in0.0 mm
11:48 AM 73.0°F22.8°C 71.8°F22.1°C 96% 10.0 mph SW16.1 kmh SW 18.0 mph29.0 kmh 29.89 in1012.2 mb 0.00 in0.0 mm 0.00 in0.0 mm 0.00 in0.0 mm
11:53 AM 73.1°F22.8°C 71.9°F22.2°C 96% 9.0 mph SW14.5 kmh SW 18.0 mph29.0 kmh 29.88 in1011.9 mb 0.00 in0.0 mm 0.00 in0.0 mm 0.00 in0.0 mm
11:54 AM 73.1°F22.8°C 71.9°F22.2°C 96% 9.0 mph SW14.5 kmh SW 15.0 mph24.1 kmh 29.88 in1011.9 mb 0.00 in0.0 mm 0.00 in0.0 mm 0.00 in0.0 mm
11:55 AM 73.1°F22.8°C 71.9°F22.2°C 96% 9.0 mph SW14.5 kmh SW 15.0 mph24.1 kmh 29.88 in1011.9 mb 0.00 in0.0 mm 0.00 in0.0 mm 0.00 in0.0 mm
11:56 AM 73.1°F22.8°C 71.9°F22.2°C 96% 9.0 mph SW14.5 kmh SW 15.0 mph24.1 kmh 29.88 in1011.9 mb 0.00 in0.0 mm 0.00 in0.0 mm 0.00 in0.0 mm
11:57 AM 73.1°F22.8°C 71.9°F22.2°C 96% 9.0 mph SW14.5 kmh SW 15.0 mph24.1 kmh 29.88 in1011.9 mb 0.00 in0.0 mm 0.00 in0.0 mm 0.00 in0.0 mm
11:58 AM 73.2°F22.9°C 72.0°F22.2°C 96% 9.0 mph SW14.5 kmh SW 15.0 mph24.1 kmh 29.88 in1011.9 mb 0.00 in0.0 mm 0.00 in0.0 mm 0.00 in0.0 mm
11:59 AM 73.2°F22.9°C 72.0°F22.2°C 96% 9.0 mph SW14.5 kmh SW 17.0 mph27.4 kmh 29.88 in1011.9 mb 0.00 in0.0 mm 0.00 in0.0 mm 0.00 in0.0 mm
12:00 PM 73.3°F22.9°C 72.1°F22.3°C 96% 9.0 mph SW14.5 kmh SW 17.0 mph27.4 kmh 29.88 in1011.9 mb 0.00 in0.0 mm 0.00 in0.0 mm 0.00 in0.0 mm
12:01 PM 73.3°F22.9°C 72.1°F22.3°C 96% 9.0 mph SW14.5 kmh SW 17.0 mph27.4 kmh 29.88 in1011.9 mb 0.00 in0.0 mm 0.00 in0.0 mm 0.00 in0.0 mm
12:02 PM 73.4°F23.0°C 72.2°F22.3°C 96% 9.0 mph SW14.5 kmh SW 17.0 mph27.4 kmh 29.88 in1011.9 mb 0.00 in0.0 mm 0.00 in0.0 mm 0.00 in0.0 mm
12:03 PM 73.4°F23.0°C 72.2°F22.3°C 96% 9.0 mph SW14.5 kmh SW 17.0 mph27.4 kmh 29.88 in1011.9 mb 0.00 in0.0 mm 0.00 in0.0 mm 0.00 in0.0 mm
12:04 PM 73.5°F23.1°C 72.3°F22.4°C 96% 9.0 mph SW14.5 kmh SW 17.0 mph27.4 kmh 29.89 in1012.2 mb 0.00 in0.0 mm 0.00 in0.0 mm 0.00 in0.0 mm
12:08 PM 73.6°F23.1°C 72.1°F22.3°C 95% 9.0 mph SW14.5 kmh SW 17.0 mph27.4 kmh 29.88 in1011.9 mb 0.00 in0.0 mm 0.00 in0.0 mm 0.00 in0.0 mm
12:10 PM 73.7°F23.2°C 72.2°F22.3°C 95% 9.0 mph SW14.5 kmh SW 16.0 mph25.7 kmh 29.88 in1011.9 mb 0.00 in0.0 mm 0.00 in0.0 mm 0.00 in0.0 mm
12:13 PM 73.8°F23.2°C 72.3°F22.4°C 95% 8.0 mph SW12.9 kmh SW 16.0 mph25.7 kmh 29.88 in1011.9 mb 0.00 in0.0 mm 0.00 in0.0 mm 0.00 in0.0 mm
12:15 PM 73.8°F23.2°C 72.3°F22.4°C 95% 8.0 mph SW12.9 kmh SW 15.0 mph24.1 kmh 29.88 in1011.9 mb 0.00 in0.0 mm 0.00 in0.0 mm 0.00 in0.0 mm
12:16 PM 73.9°F23.3°C 72.4°F22.4°C 95% 7.0 mph SW11.3 kmh SW 14.0 mph22.5 kmh 29.87 in1011.5 mb 0.00 in0.0 mm 0.00 in0.0 mm 0.00 in0.0 mm
12:23 PM 74.2°F23.4°C 72.7°F22.6°C 95% 8.0 mph SW12.9 kmh SW 15.0 mph24.1 kmh 29.88 in1011.9 mb 0.00 in0.0 mm 0.00 in0.0 mm 0.00 in0.0 mm
12:24 PM 74.3°F23.5°C 72.8°F22.7°C 95% 9.0 mph SW14.5 kmh SW 17.0 mph27.4 kmh 29.88 in1011.9 mb 0.00 in0.0 mm 0.00 in0.0 mm 0.00 in0.0 mm
12:25 PM 74.4°F23.6°C 72.9°F22.7°C 95% 9.0 mph SW14.5 kmh SW 17.0 mph27.4 kmh 29.88 in1011.9 mb 0.00 in0.0 mm 0.00 in0.0 mm 0.00 in0.0 mm
12:26 PM 74.5°F23.6°C 72.7°F22.6°C 94% 9.0 mph SW14.5 kmh SW 17.0 mph27.4 kmh 29.88 in1011.9 mb 0.00 in0.0 mm 0.00 in0.0 mm 0.00 in0.0 mm
12:28 PM 74.6°F23.7°C 72.8°F22.7°C 94% 9.0 mph SSW14.5 kmh SSW 17.0 mph27.4 kmh 29.88 in1011.9 mb 0.00 in0.0 mm 0.00 in0.0 mm 0.00 in0.0 mm
12:31 PM 74.7°F23.7°C 72.9°F22.7°C 94% 10.0 mph SSW16.1 kmh SSW 17.0 mph27.4 kmh 29.87 in1011.5 mb 0.00 in0.0 mm 0.00 in0.0 mm 0.00 in0.0 mm
12:33 PM 74.8°F23.8°C 73.0°F22.8°C 94% 10.0 mph SSW16.1 kmh SSW 17.0 mph27.4 kmh 29.87 in1011.5 mb 0.00 in0.0 mm 0.00 in0.0 mm 0.00 in0.0 mm
12:37 PM 74.9°F23.8°C 72.7°F22.6°C 93% 10.0 mph SSW16.1 kmh SSW 17.0 mph27.4 kmh 29.86 in1011.2 mb 0.00 in0.0 mm 0.00 in0.0 mm 0.00 in0.0 mm
12:38 PM 74.9°F23.8°C 72.7°F22.6°C 93% 10.0 mph SSW16.1 kmh SSW 16.0 mph25.7 kmh 29.86 in1011.2 mb 0.00 in0.0 mm 0.00 in0.0 mm 0.00 in0.0 mm
12:40 PM 75.0°F23.9°C 73.2°F22.9°C 94% 9.0 mph SSW14.5 kmh SSW 15.0 mph24.1 kmh 29.86 in1011.2 mb 0.00 in0.0 mm 0.00 in0.0 mm 0.00 in0.0 mm
12:41 PM 75.1°F23.9°C 73.3°F22.9°C 94% 9.0 mph SSW14.5 kmh SSW 15.0 mph24.1 kmh 29.86 in1011.2 mb 0.00 in0.0 mm 0.00 in0.0 mm 0.00 in0.0 mm
12:42 PM 75.2°F24.0°C 73.4°F23.0°C 94% 8.0 mph SW12.9 kmh SW 15.0 mph24.1 kmh 29.86 in1011.2 mb 0.00 in0.0 mm 0.00 in0.0 mm 0.00 in0.0 mm
12:43 PM 75.3°F24.1°C 73.1°F22.8°C 93% 8.0 mph SW12.9 kmh SW 15.0 mph24.1 kmh 29.86 in1011.2 mb 0.00 in0.0 mm 0.00 in0.0 mm 0.00 in0.0 mm
12:45 PM 75.5°F24.2°C 73.7°F23.2°C 94% 8.0 mph SW12.9 kmh SW 15.0 mph24.1 kmh 29.86 in1011.2 mb 0.00 in0.0 mm 0.00 in0.0 mm 0.00 in0.0 mm
12:46 PM 75.6°F24.2°C 73.4°F23.0°C 93% 7.0 mph SW11.3 kmh SW 14.0 mph22.5 kmh 29.86 in1011.2 mb 0.00 in0.0 mm 0.00 in0.0 mm 0.00 in0.0 mm
12:47 PM 75.7°F24.3°C 73.5°F23.1°C 93% 7.0 mph SW11.3 kmh SW 14.0 mph22.5 kmh 29.86 in1011.2 mb 0.00 in0.0 mm 0.00 in0.0 mm 0.00 in0.0 mm
12:48 PM 75.8°F24.3°C 73.6°F23.1°C 93% 7.0 mph SW11.3 kmh SW 14.0 mph22.5 kmh 29.86 in1011.2 mb 0.00 in0.0 mm 0.00 in0.0 mm 0.00 in0.0 mm
12:49 PM 75.9°F24.4°C 73.7°F23.2°C 93% 7.0 mph SW11.3 kmh SW 14.0 mph22.5 kmh 29.86 in1011.2 mb 0.00 in0.0 mm 0.00 in0.0 mm 0.00 in0.0 mm
12:50 PM 76.1°F24.5°C 73.9°F23.3°C 93% 8.0 mph SW12.9 kmh SW 14.0 mph22.5 kmh 29.85 in1010.8 mb 0.00 in0.0 mm 0.00 in0.0 mm 0.00 in0.0 mm
12:51 PM 76.1°F24.5°C 73.9°F23.3°C 93% 8.0 mph SW12.9 kmh SW 14.0 mph22.5 kmh 29.85 in1010.8 mb 0.00 in0.0 mm 0.00 in0.0 mm 0.00 in0.0 mm
12:52 PM 76.3°F24.6°C 74.1°F23.4°C 93% 8.0 mph SW12.9 kmh SW 14.0 mph22.5 kmh 29.85 in1010.8 mb 0.00 in0.0 mm 0.00 in0.0 mm 0.00 in0.0 mm
12:53 PM 76.4°F24.7°C 74.2°F23.4°C 93% 8.0 mph SW12.9 kmh SW 16.0 mph25.7 kmh 29.85 in1010.8 mb 0.00 in0.0 mm 0.00 in0.0 mm 0.00 in0.0 mm
12:54 PM 76.5°F24.7°C 74.0°F23.3°C 92% 9.0 mph SW14.5 kmh SW 16.0 mph25.7 kmh 29.85 in1010.8 mb 0.00 in0.0 mm 0.00 in0.0 mm 0.00 in0.0 mm
12:55 PM 76.6°F24.8°C 74.1°F23.4°C 92% 9.0 mph SW14.5 kmh SW 16.0 mph25.7 kmh 29.85 in1010.8 mb 0.00 in0.0 mm 0.00 in0.0 mm 0.00 in0.0 mm
12:56 PM 76.6°F24.8°C 74.1°F23.4°C 92% 9.0 mph SW14.5 kmh SW 18.0 mph29.0 kmh 29.85 in1010.8 mb 0.00 in0.0 mm 0.00 in0.0 mm 0.00 in0.0 mm
12:57 PM 76.7°F24.8°C 74.2°F23.4°C 92% 10.0 mph SSW16.1 kmh SSW 18.0 mph29.0 kmh 29.85 in1010.8 mb 0.00 in0.0 mm 0.00 in0.0 mm 0.00 in0.0 mm
12:58 PM 76.7°F24.8°C 73.9°F23.3°C 91% 10.0 mph SSW16.1 kmh SSW 18.0 mph29.0 kmh 29.85 in1010.8 mb 0.00 in0.0 mm 0.00 in0.0 mm 0.00 in0.0 mm
12:59 PM 76.8°F24.9°C 74.0°F23.3°C 91% 10.0 mph SSW16.1 kmh SSW 18.0 mph29.0 kmh 29.85 in1010.8 mb 0.00 in0.0 mm 0.00 in0.0 mm 0.00 in0.0 mm
01:01 PM 76.9°F24.9°C 74.1°F23.4°C 91% 10.0 mph SSW16.1 kmh SSW 18.0 mph29.0 kmh 29.85 in1010.8 mb 0.00 in0.0 mm 0.00 in0.0 mm 0.00 in0.0 mm
01:02 PM 76.9°F24.9°C 74.1°F23.4°C 91% 10.0 mph SSW16.1 kmh SSW 18.0 mph29.0 kmh 29.84 in1010.5 mb 0.00 in0.0 mm 0.00 in0.0 mm 0.00 in0.0 mm
01:03 PM 76.9°F24.9°C 74.1°F23.4°C 91% 10.0 mph SSW16.1 kmh SSW 18.0 mph29.0 kmh 29.85 in1010.8 mb 0.00 in0.0 mm 0.00 in0.0 mm 0.00 in0.0 mm
01:04 PM 77.0°F25.0°C 74.2°F23.4°C 91% 10.0 mph SSW16.1 kmh SSW 18.0 mph29.0 kmh 29.85 in1010.8 mb 0.00 in0.0 mm 0.00 in0.0 mm 0.00 in0.0 mm
01:05 PM 77.0°F25.0°C 74.2°F23.4°C 91% 10.0 mph SSW16.1 kmh SSW 18.0 mph29.0 kmh 29.85 in1010.8 mb 0.00 in0.0 mm 0.00 in0.0 mm 0.00 in0.0 mm
01:08 PM 77.3°F25.2°C 74.1°F23.4°C 90% 10.0 mph SSW16.1 kmh SSW 19.0 mph30.6 kmh 29.85 in1010.8 mb 0.00 in0.0 mm 0.00 in0.0 mm 0.00 in0.0 mm
01:09 PM 77.4°F25.2°C 74.2°F23.4°C 90% 11.0 mph SSW17.7 kmh SSW 22.0 mph35.4 kmh 29.85 in1010.8 mb 0.00 in0.0 mm 0.00 in0.0 mm 0.00 in0.0 mm
01:10 PM 77.5°F25.3°C 74.3°F23.5°C 90% 12.0 mph SSW19.3 kmh SSW 22.0 mph35.4 kmh 29.85 in1010.8 mb 0.00 in0.0 mm 0.00 in0.0 mm 0.00 in0.0 mm
01:15 PM 77.9°F25.5°C 74.4°F23.6°C 89% 13.0 mph SW20.9 kmh SW 29.0 mph46.7 kmh 29.85 in1010.8 mb 0.00 in0.0 mm 0.00 in0.0 mm 0.00 in0.0 mm
01:18 PM 78.2°F25.7°C 74.7°F23.7°C 89% 13.0 mph SW20.9 kmh SW 29.0 mph46.7 kmh 29.84 in1010.5 mb 0.00 in0.0 mm 0.00 in0.0 mm 0.00 in0.0 mm
01:23 PM 78.8°F26.0°C 74.9°F23.8°C 88% 10.0 mph SW16.1 kmh SW 21.0 mph33.8 kmh 29.83 in1010.2 mb 0.00 in0.0 mm 0.00 in0.0 mm 0.00 in0.0 mm
01:28 PM 79.1°F26.2°C 74.9°F23.8°C 87% 9.0 mph SW14.5 kmh SW 19.0 mph30.6 kmh 29.84 in1010.5 mb 0.00 in0.0 mm 0.00 in0.0 mm 0.00 in0.0 mm
01:33 PM 79.4°F26.3°C 74.8°F23.8°C 86% 10.0 mph SW16.1 kmh SW 20.0 mph32.2 kmh 29.83 in1010.2 mb 0.00 in0.0 mm 0.00 in0.0 mm 0.00 in0.0 mm
01:36 PM 79.6°F26.4°C 75.0°F23.9°C 86% 11.0 mph SW17.7 kmh SW 21.0 mph33.8 kmh 29.84 in1010.5 mb 0.00 in0.0 mm 0.00 in0.0 mm 0.00 in0.0 mm
01:37 PM 79.6°F26.4°C 74.7°F23.7°C 85% 11.0 mph SSW17.7 kmh SSW 24.0 mph38.6 kmh 29.83 in1010.2 mb 0.00 in0.0 mm 0.00 in0.0 mm 0.00 in0.0 mm
01:38 PM 79.6°F26.4°C 74.7°F23.7°C 85% 12.0 mph SW19.3 kmh SW 24.0 mph38.6 kmh 29.83 in1010.2 mb 0.00 in0.0 mm 0.00 in0.0 mm 0.00 in0.0 mm
01:41 PM 79.5°F26.4°C 74.6°F23.7°C 85% 13.0 mph SW20.9 kmh SW 27.0 mph43.5 kmh 29.83 in1010.2 mb 0.00 in0.0 mm 0.00 in0.0 mm 0.00 in0.0 mm
01:44 PM 79.4°F26.3°C 74.5°F23.6°C 85% 13.0 mph SW20.9 kmh SW 27.0 mph43.5 kmh 29.83 in1010.2 mb 0.00 in0.0 mm 0.00 in0.0 mm 0.00 in0.0 mm
01:46 PM 79.4°F26.3°C 74.1°F23.4°C 84% 14.0 mph SW22.5 kmh SW 27.0 mph43.5 kmh 29.83 in1010.2 mb 0.00 in0.0 mm 0.00 in0.0 mm 0.00 in0.0 mm
01:48 PM 79.5°F26.4°C 74.6°F23.7°C 85% 13.0 mph SW20.9 kmh SW 27.0 mph43.5 kmh 29.83 in1010.2 mb 0.00 in0.0 mm 0.00 in0.0 mm 0.00 in0.0 mm
01:49 PM 79.6°F26.4°C 74.7°F23.7°C 85% 13.0 mph SW20.9 kmh SW 27.0 mph43.5 kmh 29.82 in1009.8 mb 0.00 in0.0 mm 0.00 in0.0 mm 0.00 in0.0 mm
01:50 PM 79.6°F26.4°C 74.3°F23.5°C 84% 13.0 mph SW20.9 kmh SW 27.0 mph43.5 kmh 29.82 in1009.8 mb 0.00 in0.0 mm 0.00 in0.0 mm 0.00 in0.0 mm
01:51 PM 79.7°F26.5°C 74.4°F23.6°C 84% 13.0 mph SW20.9 kmh SW 26.0 mph41.8 kmh 29.82 in1009.8 mb 0.00 in0.0 mm 0.00 in0.0 mm 0.00 in0.0 mm
01:52 PM 79.8°F26.6°C 74.5°F23.6°C 84% 14.0 mph SW22.5 kmh SW 30.0 mph48.3 kmh 29.82 in1009.8 mb 0.00 in0.0 mm 0.00 in0.0 mm 0.00 in0.0 mm
01:53 PM 79.9°F26.6°C 74.6°F23.7°C 84% 14.0 mph SW22.5 kmh SW 30.0 mph48.3 kmh 29.82 in1009.8 mb 0.00 in0.0 mm 0.00 in0.0 mm 0.00 in0.0 mm
01:56 PM 80.2°F26.8°C 74.6°F23.7°C 83% 14.0 mph SW22.5 kmh SW 30.0 mph48.3 kmh 29.82 in1009.8 mb 0.00 in0.0 mm 0.00 in0.0 mm 0.00 in0.0 mm
01:57 PM 80.2°F26.8°C 74.6°F23.7°C 83% 14.0 mph SW22.5 kmh SW 30.0 mph48.3 kmh 29.82 in1009.8 mb 0.00 in0.0 mm 0.00 in0.0 mm 0.00 in0.0 mm
01:58 PM 80.3°F26.8°C 74.7°F23.7°C 83% 14.0 mph SW22.5 kmh SW 30.0 mph48.3 kmh 29.82 in1009.8 mb 0.00 in0.0 mm 0.00 in0.0 mm 0.00 in0.0 mm
01:59 PM 80.4°F26.9°C 74.8°F23.8°C 83% 13.0 mph SW20.9 kmh SW 30.0 mph48.3 kmh 29.82 in1009.8 mb 0.00 in0.0 mm 0.00 in0.0 mm 0.00 in0.0 mm
02:01 PM 80.5°F26.9°C 74.9°F23.8°C 83% 13.0 mph SW20.9 kmh SW 30.0 mph48.3 kmh 29.82 in1009.8 mb 0.00 in0.0 mm 0.00 in0.0 mm 0.00 in0.0 mm
04:31 PM 78.0°F25.6°C 72.4°F22.4°C 83% 10.0 mph SW16.1 kmh SW 28.0 mph45.1 kmh 29.80 in1009.1 mb 0.02 in0.5 mm 0.04 in1.0 mm 0.02 in0.5 mm
04:32 PM 67.0°F19.4°C 63.0°F17.2°C 87% 9.0 mph NW14.5 kmh NW 11.0 mph17.7 kmh 29.87 in1011.5 mb 0.00 in0.0 mm 0.00 in0.0 mm 0.05 in1.3 mm
04:33 PM 66.7°F19.3°C 62.7°F17.1°C 87% 9.0 mph NW14.5 kmh NW 11.0 mph17.7 kmh 29.87 in1011.5 mb 0.00 in0.0 mm 0.00 in0.0 mm 0.05 in1.3 mm
04:35 PM 66.2°F19.0°C 62.5°F16.9°C 88% 8.0 mph NW12.9 kmh NW 11.0 mph17.7 kmh 29.88 in1011.9 mb 0.00 in0.0 mm 0.00 in0.0 mm 0.05 in1.3 mm
04:36 PM 66.1°F18.9°C 62.4°F16.9°C 88% 8.0 mph NW12.9 kmh NW 12.0 mph19.3 kmh 29.88 in1011.9 mb 0.00 in0.0 mm 0.00 in0.0 mm 0.05 in1.3 mm
04:37 PM 65.9°F18.8°C 62.2°F16.8°C 88% 7.0 mph NW11.3 kmh NW 12.0 mph19.3 kmh 29.88 in1011.9 mb 0.00 in0.0 mm 0.00 in0.0 mm 0.05 in1.3 mm
04:38 PM 65.7°F18.7°C 62.4°F16.9°C 89% 7.0 mph NW11.3 kmh NW 16.0 mph25.7 kmh 29.89 in1012.2 mb 0.00 in0.0 mm 0.00 in0.0 mm 0.05 in1.3 mm
04:39 PM 65.5°F18.6°C 62.2°F16.8°C 89% 7.0 mph NW11.3 kmh NW 16.0 mph25.7 kmh 29.89 in1012.2 mb 0.00 in0.0 mm 0.00 in0.0 mm 0.05 in1.3 mm
04:40 PM 65.3°F18.5°C 62.3°F16.8°C 90% 8.0 mph NW12.9 kmh NW 16.0 mph25.7 kmh 29.88 in1011.9 mb 0.00 in0.0 mm 0.00 in0.0 mm 0.05 in1.3 mm
04:42 PM 65.0°F18.3°C 62.0°F16.7°C 90% 7.0 mph NW11.3 kmh NW 17.0 mph27.4 kmh 29.88 in1011.9 mb 0.00 in0.0 mm 0.00 in0.0 mm 0.05 in1.3 mm
04:43 PM 64.9°F18.3°C 61.9°F16.6°C 90% 7.0 mph NW11.3 kmh NW 17.0 mph27.4 kmh 29.88 in1011.9 mb 0.00 in0.0 mm 0.00 in0.0 mm 0.05 in1.3 mm
04:44 PM 64.8°F18.2°C 62.1°F16.7°C 91% 8.0 mph NW12.9 kmh NW 17.0 mph27.4 kmh 29.88 in1011.9 mb 0.00 in0.0 mm 0.00 in0.0 mm 0.05 in1.3 mm
04:46 PM 64.6°F18.1°C 61.9°F16.6°C 91% 8.0 mph NW12.9 kmh NW 17.0 mph27.4 kmh 29.89 in1012.2 mb 0.00 in0.0 mm 0.00 in0.0 mm 0.05 in1.3 mm
04:47 PM 64.5°F18.1°C 61.8°F16.6°C 91% 9.0 mph NW14.5 kmh NW 17.0 mph27.4 kmh 29.89 in1012.2 mb 0.00 in0.0 mm 0.00 in0.0 mm 0.05 in1.3 mm
04:50 PM 64.3°F17.9°C 61.6°F16.4°C 91% 9.0 mph NW14.5 kmh NW 17.0 mph27.4 kmh 29.89 in1012.2 mb 0.00 in0.0 mm 0.00 in0.0 mm 0.05 in1.3 mm
04:54 PM 64.0°F17.8°C 61.6°F16.4°C 92% 8.0 mph NW12.9 kmh NW 14.0 mph22.5 kmh 29.90 in1012.5 mb 0.00 in0.0 mm 0.00 in0.0 mm 0.05 in1.3 mm
04:55 PM 63.9°F17.7°C 61.5°F16.4°C 92% 8.0 mph NW12.9 kmh NW 15.0 mph24.1 kmh 29.89 in1012.2 mb 0.00 in0.0 mm 0.00 in0.0 mm 0.05 in1.3 mm
04:56 PM 63.9°F17.7°C 61.5°F16.4°C 92% 8.0 mph NW12.9 kmh NW 15.0 mph24.1 kmh 29.89 in1012.2 mb 0.00 in0.0 mm 0.00 in0.0 mm 0.05 in1.3 mm
04:57 PM 63.8°F17.7°C 61.4°F16.3°C 92% 8.0 mph NW12.9 kmh NW 15.0 mph24.1 kmh 29.89 in1012.2 mb 0.00 in0.0 mm 0.00 in0.0 mm 0.05 in1.3 mm
04:58 PM 63.8°F17.7°C 61.4°F16.3°C 92% 8.0 mph NW12.9 kmh NW 15.0 mph24.1 kmh 29.89 in1012.2 mb 0.00 in0.0 mm 0.00 in0.0 mm 0.05 in1.3 mm
04:59 PM 63.7°F17.6°C 61.3°F16.3°C 92% 8.0 mph NW12.9 kmh NW 15.0 mph24.1 kmh 29.90 in1012.5 mb 0.00 in0.0 mm 0.00 in0.0 mm 0.05 in1.3 mm
05:01 PM 63.6°F17.6°C 61.2°F16.2°C 92% 8.0 mph NW12.9 kmh NW 15.0 mph24.1 kmh 29.89 in1012.2 mb 0.00 in0.0 mm 0.00 in0.0 mm 0.05 in1.3 mm
05:02 PM 63.5°F17.5°C 61.1°F16.2°C 92% 8.0 mph NW12.9 kmh NW 15.0 mph24.1 kmh 29.89 in1012.2 mb 0.00 in0.0 mm 0.00 in0.0 mm 0.05 in1.3 mm
05:04 PM 63.4°F17.4°C 61.0°F16.1°C 92% 8.0 mph NW12.9 kmh NW 15.0 mph24.1 kmh 29.90 in1012.5 mb 0.00 in0.0 mm 0.00 in0.0 mm 0.05 in1.3 mm
05:05 PM 63.4°F17.4°C 61.0°F16.1°C 92% 7.0 mph NW11.3 kmh NW 15.0 mph24.1 kmh 29.90 in1012.5 mb 0.00 in0.0 mm 0.00 in0.0 mm 0.05 in1.3 mm
05:06 PM 63.3°F17.4°C 60.9°F16.1°C 92% 8.0 mph NNW12.9 kmh NNW 20.0 mph32.2 kmh 29.90 in1012.5 mb 0.00 in0.0 mm 0.00 in0.0 mm 0.05 in1.3 mm
05:07 PM 63.2°F17.3°C 60.8°F16.0°C 92% 8.0 mph NNW12.9 kmh NNW 20.0 mph32.2 kmh 29.89 in1012.2 mb 0.00 in0.0 mm 0.00 in0.0 mm 0.05 in1.3 mm
05:08 PM 63.2°F17.3°C 60.8°F16.0°C 92% 8.0 mph NNW12.9 kmh NNW 20.0 mph32.2 kmh 29.90 in1012.5 mb 0.00 in0.0 mm 0.00 in0.0 mm 0.05 in1.3 mm
05:09 PM 63.1°F17.3°C 60.7°F15.9°C 92% 8.0 mph NNW12.9 kmh NNW 20.0 mph32.2 kmh 29.90 in1012.5 mb 0.00 in0.0 mm 0.00 in0.0 mm 0.05 in1.3 mm
05:11 PM 63.1°F17.3°C 60.7°F15.9°C 92% 9.0 mph NW14.5 kmh NW 20.0 mph32.2 kmh 29.90 in1012.5 mb 0.00 in0.0 mm 0.00 in0.0 mm 0.05 in1.3 mm
05:13 PM 63.0°F17.2°C 60.6°F15.9°C 92% 9.0 mph NNW14.5 kmh NNW 20.0 mph32.2 kmh 29.90 in1012.5 mb 0.00 in0.0 mm 0.00 in0.0 mm 0.05 in1.3 mm
05:14 PM 63.0°F17.2°C 60.9°F16.1°C 93% 9.0 mph NW14.5 kmh NW 20.0 mph32.2 kmh 29.90 in1012.5 mb 0.00 in0.0 mm 0.00 in0.0 mm 0.05 in1.3 mm
05:15 PM 63.0°F17.2°C 60.6°F15.9°C 92% 10.0 mph NW16.1 kmh NW 20.0 mph32.2 kmh 29.90 in1012.5 mb 0.00 in0.0 mm 0.00 in0.0 mm 0.05 in1.3 mm
05:17 PM 62.9°F17.2°C 60.8°F16.0°C 93% 9.0 mph NW14.5 kmh NW 18.0 mph29.0 kmh 29.90 in1012.5 mb 0.00 in0.0 mm 0.00 in0.0 mm 0.05 in1.3 mm
05:20 PM 62.8°F17.1°C 60.7°F15.9°C 93% 9.0 mph NW14.5 kmh NW 18.0 mph29.0 kmh 29.89 in1012.2 mb 0.00 in0.0 mm 0.00 in0.0 mm 0.05 in1.3 mm
05:21 PM 62.9°F17.2°C 60.8°F16.0°C 93% 9.0 mph NW14.5 kmh NW 18.0 mph29.0 kmh 29.89 in1012.2 mb 0.00 in0.0 mm 0.00 in0.0 mm 0.05 in1.3 mm
05:23 PM 62.9°F17.2°C 60.8°F16.0°C 93% 9.0 mph NW14.5 kmh NW 18.0 mph29.0 kmh 29.90 in1012.5 mb 0.00 in0.0 mm 0.00 in0.0 mm 0.05 in1.3 mm
05:24 PM 62.9°F17.2°C 60.8°F16.0°C 93% 8.0 mph NW12.9 kmh NW 18.0 mph29.0 kmh 29.89 in1012.2 mb 0.00 in0.0 mm 0.00 in0.0 mm 0.05 in1.3 mm
05:25 PM 62.9°F17.2°C 60.8°F16.0°C 93% 8.0 mph NW12.9 kmh NW 18.0 mph29.0 kmh 29.90 in1012.5 mb 0.00 in0.0 mm 0.00 in0.0 mm 0.05 in1.3 mm
05:26 PM 62.9°F17.2°C 60.8°F16.0°C 93% 7.0 mph NW11.3 kmh NW 18.0 mph29.0 kmh 29.90 in1012.5 mb 0.00 in0.0 mm 0.00 in0.0 mm 0.05 in1.3 mm
05:27 PM 62.9°F17.2°C 60.8°F16.0°C 93% 7.0 mph NW11.3 kmh NW 18.0 mph29.0 kmh 29.91 in1012.9 mb 0.00 in0.0 mm 0.00 in0.0 mm 0.05 in1.3 mm
05:29 PM 62.9°F17.2°C 60.8°F16.0°C 93% 6.0 mph NW9.7 kmh NW 18.0 mph29.0 kmh 29.91 in1012.9 mb 0.00 in0.0 mm 0.00 in0.0 mm 0.05 in1.3 mm
05:30 PM 62.9°F17.2°C 60.8°F16.0°C 93% 6.0 mph NW9.7 kmh NW 18.0 mph29.0 kmh 29.91 in1012.9 mb 0.00 in0.0 mm 0.00 in0.0 mm 0.05 in1.3 mm
05:31 PM 62.9°F17.2°C 60.8°F16.0°C 93% 5.0 mph NW8.0 kmh NW 18.0 mph29.0 kmh 29.91 in1012.9 mb 0.00 in0.0 mm 0.00 in0.0 mm 0.05 in1.3 mm
05:33 PM 62.9°F17.2°C 60.8°F16.0°C 93% 5.0 mph NW8.0 kmh NW 12.0 mph19.3 kmh 29.91 in1012.9 mb 0.00 in0.0 mm 0.00 in0.0 mm 0.05 in1.3 mm
05:34 PM 62.9°F17.2°C 60.8°F16.0°C 93% 6.0 mph NW9.7 kmh NW 12.0 mph19.3 kmh 29.91 in1012.9 mb 0.00 in0.0 mm 0.00 in0.0 mm 0.05 in1.3 mm
05:35 PM 62.9°F17.2°C 60.8°F16.0°C 93% 6.0 mph NW9.7 kmh NW 12.0 mph19.3 kmh 29.90 in1012.5 mb 0.00 in0.0 mm 0.00 in0.0 mm 0.05 in1.3 mm
05:36 PM 62.8°F17.1°C 60.7°F15.9°C 93% 6.0 mph NW9.7 kmh NW 12.0 mph19.3 kmh 29.90 in1012.5 mb 0.00 in0.0 mm 0.00 in0.0 mm 0.05 in1.3 mm
05:37 PM 62.8°F17.1°C 60.7°F15.9°C 93% 6.0 mph NW9.7 kmh NW 12.0 mph19.3 kmh 29.91 in1012.9 mb 0.00 in0.0 mm 0.00 in0.0 mm 0.05 in1.3 mm
05:38 PM 62.8°F17.1°C 60.7°F15.9°C 93% 6.0 mph NW9.7 kmh NW 12.0 mph19.3 kmh 29.91 in1012.9 mb 0.00 in0.0 mm 0.00 in0.0 mm 0.05 in1.3 mm
05:41 PM 62.8°F17.1°C 60.7°F15.9°C 93% 7.0 mph NW11.3 kmh NW 12.0 mph19.3 kmh 29.91 in1012.9 mb 0.00 in0.0 mm 0.00 in0.0 mm 0.05 in1.3 mm
05:42 PM 62.7°F17.1°C 60.6°F15.9°C 93% 6.0 mph NW9.7 kmh NW 12.0 mph19.3 kmh 29.91 in1012.9 mb 0.00 in0.0 mm 0.00 in0.0 mm 0.05 in1.3 mm
05:43 PM 62.7°F17.1°C 60.6°F15.9°C 93% 6.0 mph NW9.7 kmh NW 15.0 mph24.1 kmh 29.90 in1012.5 mb 0.00 in0.0 mm 0.00 in0.0 mm 0.05 in1.3 mm
05:44 PM 62.7°F17.1°C 60.6°F15.9°C 93% 6.0 mph NNW9.7 kmh NNW 15.0 mph24.1 kmh 29.90 in1012.5 mb 0.00 in0.0 mm 0.00 in0.0 mm 0.05 in1.3 mm
05:46 PM 62.6°F17.0°C 60.5°F15.8°C 93% 6.0 mph NNW9.7 kmh NNW 15.0 mph24.1 kmh 29.91 in1012.9 mb 0.00 in0.0 mm 0.00 in0.0 mm 0.05 in1.3 mm
05:47 PM 62.6°F17.0°C 60.5°F15.8°C 93% 6.0 mph NNW9.7 kmh NNW 15.0 mph24.1 kmh 29.91 in1012.9 mb 0.00 in0.0 mm 0.00 in0.0 mm 0.05 in1.3 mm
05:49 PM 62.6°F17.0°C 60.5°F15.8°C 93% 6.0 mph NNW9.7 kmh NNW 15.0 mph24.1 kmh 29.91 in1012.9 mb 0.00 in0.0 mm 0.00 in0.0 mm 0.05 in1.3 mm
05:50 PM 62.6°F17.0°C 60.5°F15.8°C 93% 6.0 mph NNW9.7 kmh NNW 15.0 mph24.1 kmh 29.91 in1012.9 mb 0.00 in0.0 mm 0.00 in0.0 mm 0.05 in1.3 mm
05:51 PM 62.6°F17.0°C 60.5°F15.8°C 93% 5.0 mph NNW8.0 kmh NNW 15.0 mph24.1 kmh 29.91 in1012.9 mb 0.00 in0.0 mm 0.00 in0.0 mm 0.05 in1.3 mm
05:53 PM 62.5°F16.9°C 60.4°F15.8°C 93% 5.0 mph NNW8.0 kmh NNW 13.0 mph20.9 kmh 29.91 in1012.9 mb 0.00 in0.0 mm 0.00 in0.0 mm 0.05 in1.3 mm
05:54 PM 62.5°F16.9°C 60.4°F15.8°C 93% 5.0 mph NW8.0 kmh NW 11.0 mph17.7 kmh 29.91 in1012.9 mb 0.00 in0.0 mm 0.00 in0.0 mm 0.05 in1.3 mm
05:55 PM 62.5°F16.9°C 60.4°F15.8°C 93% 5.0 mph NNW8.0 kmh NNW 11.0 mph17.7 kmh 29.91 in1012.9 mb 0.00 in0.0 mm 0.00 in0.0 mm 0.05 in1.3 mm
05:56 PM 62.5°F16.9°C 60.4°F15.8°C 93% 5.0 mph NNW8.0 kmh NNW 12.0 mph19.3 kmh 29.91 in1012.9 mb 0.00 in0.0 mm 0.00 in0.0 mm 0.05 in1.3 mm
05:57 PM 62.5°F16.9°C 60.4°F15.8°C 93% 5.0 mph NNW8.0 kmh NNW 12.0 mph19.3 kmh 29.91 in1012.9 mb 0.00 in0.0 mm 0.00 in0.0 mm 0.05 in1.3 mm
05:58 PM 62.5°F16.9°C 60.4°F15.8°C 93% 5.0 mph NNW8.0 kmh NNW 12.0 mph19.3 kmh 29.91 in1012.9 mb 0.00 in0.0 mm 0.00 in0.0 mm 0.05 in1.3 mm
05:59 PM 62.5°F16.9°C 60.4°F15.8°C 93% 5.0 mph NNW8.0 kmh NNW 12.0 mph19.3 kmh 29.91 in1012.9 mb 0.00 in0.0 mm 0.00 in0.0 mm 0.05 in1.3 mm
06:04 PM 62.4°F16.9°C 60.3°F15.7°C 93% 5.0 mph NNW8.0 kmh NNW 12.0 mph19.3 kmh 29.91 in1012.9 mb 0.00 in0.0 mm 0.00 in0.0 mm 0.05 in1.3 mm
06:06 PM 62.4°F16.9°C 60.3°F15.7°C 93% 5.0 mph NW8.0 kmh NW 12.0 mph19.3 kmh 29.91 in1012.9 mb 0.00 in0.0 mm 0.00 in0.0 mm 0.05 in1.3 mm
06:07 PM 62.4°F16.9°C 60.3°F15.7°C 93% 5.0 mph NW8.0 kmh NW 12.0 mph19.3 kmh 29.91 in1012.9 mb 0.00 in0.0 mm 0.00 in0.0 mm 0.05 in1.3 mm
06:09 PM 62.3°F16.8°C 60.2°F15.7°C 93% 5.0 mph NW8.0 kmh NW 12.0 mph19.3 kmh 29.91 in1012.9 mb 0.00 in0.0 mm 0.00 in0.0 mm 0.05 in1.3 mm
06:11 PM 62.3°F16.8°C 60.6°F15.9°C 94% 4.0 mph NW6.4 kmh NW 12.0 mph19.3 kmh 29.92 in1013.2 mb 0.00 in0.0 mm 0.00 in0.0 mm 0.05 in1.3 mm
06:13 PM 62.3°F16.8°C 60.6°F15.9°C 94% 4.0 mph NW6.4 kmh NW 12.0 mph19.3 kmh 29.92 in1013.2 mb 0.00 in0.0 mm 0.00 in0.0 mm 0.05 in1.3 mm
06:14 PM 62.3°F16.8°C 60.6°F15.9°C 94% 4.0 mph NW6.4 kmh NW 12.0 mph19.3 kmh 29.92 in1013.2 mb 0.00 in0.0 mm 0.00 in0.0 mm 0.05 in1.3 mm
06:15 PM 62.3°F16.8°C 60.6°F15.9°C 94% 4.0 mph NNW6.4 kmh NNW 10.0 mph16.1 kmh 29.92 in1013.2 mb 0.00 in0.0 mm 0.00 in0.0 mm 0.05 in1.3 mm
06:16 PM 62.2°F16.8°C 60.5°F15.8°C 94% 4.0 mph NNW6.4 kmh NNW 11.0 mph17.7 kmh 29.92 in1013.2 mb 0.00 in0.0 mm 0.00 in0.0 mm 0.05 in1.3 mm
06:17 PM 62.2°F16.8°C 60.5°F15.8°C 94% 4.0 mph NNW6.4 kmh NNW 11.0 mph17.7 kmh 29.92 in1013.2 mb 0.00 in0.0 mm 0.00 in0.0 mm 0.05 in1.3 mm
06:20 PM 62.2°F16.8°C 60.5°F15.8°C 94% 5.0 mph NNW8.0 kmh NNW 13.0 mph20.9 kmh 29.92 in1013.2 mb 0.00 in0.0 mm 0.00 in0.0 mm 0.05 in1.3 mm
06:21 PM 62.2°F16.8°C 60.5°F15.8°C 94% 5.0 mph NNW8.0 kmh NNW 13.0 mph20.9 kmh 29.92 in1013.2 mb 0.00 in0.0 mm 0.00 in0.0 mm 0.05 in1.3 mm
06:24 PM 62.1°F16.7°C 60.4°F15.8°C 94% 5.0 mph NNW8.0 kmh NNW 13.0 mph20.9 kmh 29.92 in1013.2 mb 0.00 in0.0 mm 0.00 in0.0 mm 0.05 in1.3 mm
06:26 PM 62.1°F16.7°C 60.4°F15.8°C 94% 5.0 mph NW8.0 kmh NW 13.0 mph20.9 kmh 29.93 in1013.5 mb 0.00 in0.0 mm 0.00 in0.0 mm 0.05 in1.3 mm
06:29 PM 62.0°F16.7°C 60.3°F15.7°C 94% 4.0 mph NW6.4 kmh NW 10.0 mph16.1 kmh 29.93 in1013.5 mb 0.00 in0.0 mm 0.00 in0.0 mm 0.05 in1.3 mm
06:30 PM 62.0°F16.7°C 60.3°F15.7°C 94% 5.0 mph NW8.0 kmh NW 11.0 mph17.7 kmh 29.93 in1013.5 mb 0.00 in0.0 mm 0.00 in0.0 mm 0.05 in1.3 mm
06:33 PM 62.0°F16.7°C 60.3°F15.7°C 94% 4.0 mph NW6.4 kmh NW 11.0 mph17.7 kmh 29.93 in1013.5 mb 0.00 in0.0 mm 0.00 in0.0 mm 0.05 in1.3 mm
06:34 PM 62.0°F16.7°C 60.3°F15.7°C 94% 4.0 mph NW6.4 kmh NW 11.0 mph17.7 kmh 29.93 in1013.5 mb 0.00 in0.0 mm 0.00 in0.0 mm 0.05 in1.3 mm
06:38 PM 61.9°F16.6°C 60.2°F15.7°C 94% 4.0 mph NW6.4 kmh NW 11.0 mph17.7 kmh 29.93 in1013.5 mb 0.00 in0.0 mm 0.00 in0.0 mm 0.05 in1.3 mm
06:43 PM 61.8°F16.6°C 60.1°F15.6°C 94% 4.0 mph NW6.4 kmh NW 9.0 mph14.5 kmh 29.93 in1013.5 mb 0.00 in0.0 mm 0.00 in0.0 mm 0.05 in1.3 mm
06:46 PM 61.8°F16.6°C 60.1°F15.6°C 94% 4.0 mph NW6.4 kmh NW 8.0 mph12.9 kmh 29.93 in1013.5 mb 0.00 in0.0 mm 0.00 in0.0 mm 0.05 in1.3 mm
06:49 PM 61.8°F16.6°C 60.1°F15.6°C 94% 3.0 mph NW4.8 kmh NW 8.0 mph12.9 kmh 29.93 in1013.5 mb 0.00 in0.0 mm 0.00 in0.0 mm 0.05 in1.3 mm
06:50 PM 61.8°F16.6°C 60.1°F15.6°C 94% 3.0 mph NW4.8 kmh NW 6.0 mph9.7 kmh 29.93 in1013.5 mb 0.00 in0.0 mm 0.00 in0.0 mm 0.05 in1.3 mm
06:51 PM 61.8°F16.6°C 60.1°F15.6°C 94% 2.0 mph NW3.2 kmh NW 5.0 mph8.0 kmh 29.93 in1013.5 mb 0.00 in0.0 mm 0.00 in0.0 mm 0.05 in1.3 mm
06:53 PM 61.8°F16.6°C 60.1°F15.6°C 94% 2.0 mph NW3.2 kmh NW 5.0 mph8.0 kmh 29.93 in1013.5 mb 0.00 in0.0 mm 0.00 in0.0 mm 0.05 in1.3 mm
06:54 PM 61.8°F16.6°C 60.1°F15.6°C 94% 2.0 mph NW3.2 kmh NW 5.0 mph8.0 kmh 29.93 in1013.5 mb 0.00 in0.0 mm 0.00 in0.0 mm 0.05 in1.3 mm
06:55 PM 61.7°F16.5°C 60.0°F15.6°C 94% 2.0 mph NW3.2 kmh NW 5.0 mph8.0 kmh 29.94 in1013.9 mb 0.00 in0.0 mm 0.00 in0.0 mm 0.05 in1.3 mm
06:56 PM 61.7°F16.5°C 60.0°F15.6°C 94% 2.0 mph NW3.2 kmh NW 6.0 mph9.7 kmh 29.94 in1013.9 mb 0.00 in0.0 mm 0.00 in0.0 mm 0.05 in1.3 mm
06:57 PM 61.8°F16.6°C 60.1°F15.6°C 94% 2.0 mph NW3.2 kmh NW 6.0 mph9.7 kmh 29.94 in1013.9 mb 0.00 in0.0 mm 0.00 in0.0 mm 0.05 in1.3 mm
06:58 PM 61.7°F16.5°C 60.0°F15.6°C 94% 2.0 mph NW3.2 kmh NW 6.0 mph9.7 kmh 29.94 in1013.9 mb 0.00 in0.0 mm 0.00 in0.0 mm 0.05 in1.3 mm
07:02 PM 61.7°F16.5°C 60.0°F15.6°C 94% 2.0 mph NW3.2 kmh NW 6.0 mph9.7 kmh 29.93 in1013.5 mb 0.00 in0.0 mm 0.00 in0.0 mm 0.05 in1.3 mm
07:03 PM 61.7°F16.5°C 60.0°F15.6°C 94% 2.0 mph NW3.2 kmh NW 6.0 mph9.7 kmh 29.93 in1013.5 mb 0.00 in0.0 mm 0.00 in0.0 mm 0.05 in1.3 mm
07:05 PM 61.7°F16.5°C 60.0°F15.6°C 94% 2.0 mph NW3.2 kmh NW 6.0 mph9.7 kmh 29.93 in1013.5 mb 0.00 in0.0 mm 0.00 in0.0 mm 0.05 in1.3 mm
07:06 PM 61.7°F16.5°C 60.0°F15.6°C 94% 2.0 mph NW3.2 kmh NW 6.0 mph9.7 kmh 29.93 in1013.5 mb 0.00 in0.0 mm 0.00 in0.0 mm 0.05 in1.3 mm
07:07 PM 61.7°F16.5°C 60.0°F15.6°C 94% 2.0 mph NW3.2 kmh NW 6.0 mph9.7 kmh 29.93 in1013.5 mb 0.00 in0.0 mm 0.00 in0.0 mm 0.05 in1.3 mm
07:08 PM 61.7°F16.5°C 60.0°F15.6°C 94% 2.0 mph NW3.2 kmh NW 6.0 mph9.7 kmh 29.93 in1013.5 mb 0.00 in0.0 mm 0.00 in0.0 mm 0.05 in1.3 mm
07:09 PM 61.7°F16.5°C 60.0°F15.6°C 94% 2.0 mph NW3.2 kmh NW 6.0 mph9.7 kmh 29.93 in1013.5 mb 0.00 in0.0 mm 0.00 in0.0 mm 0.05 in1.3 mm
07:12 PM 61.6°F16.4°C 59.9°F15.5°C 94% 2.0 mph NW3.2 kmh NW 6.0 mph9.7 kmh 29.93 in1013.5 mb 0.00 in0.0 mm 0.00 in0.0 mm 0.05 in1.3 mm
07:14 PM 61.6°F16.4°C 59.9°F15.5°C 94% 2.0 mph NW3.2 kmh NW 5.0 mph8.0 kmh 29.93 in1013.5 mb 0.00 in0.0 mm 0.00 in0.0 mm 0.05 in1.3 mm
07:15 PM 61.6°F16.4°C 59.9°F15.5°C 94% 2.0 mph NW3.2 kmh NW 5.0 mph8.0 kmh 29.93 in1013.5 mb 0.00 in0.0 mm 0.00 in0.0 mm 0.05 in1.3 mm
07:17 PM 61.6°F16.4°C 59.9°F15.5°C 94% 2.0 mph NW3.2 kmh NW 5.0 mph8.0 kmh 29.93 in1013.5 mb 0.00 in0.0 mm 0.00 in0.0 mm 0.05 in1.3 mm
07:20 PM 61.6°F16.4°C 59.9°F15.5°C 94% 1.0 mph NW1.6 kmh NW 4.0 mph6.4 kmh 29.93 in1013.5 mb 0.00 in0.0 mm 0.00 in0.0 mm 0.05 in1.3 mm
07:22 PM 61.6°F16.4°C 59.9°F15.5°C 94% 1.0 mph WNW1.6 kmh WNW 4.0 mph6.4 kmh 29.94 in1013.9 mb 0.00 in0.0 mm 0.00 in0.0 mm 0.05 in1.3 mm
07:23 PM 61.6°F16.4°C 59.9°F15.5°C 94% 1.0 mph WNW1.6 kmh WNW 4.0 mph6.4 kmh 29.94 in1013.9 mb 0.00 in0.0 mm 0.00 in0.0 mm 0.05 in1.3 mm
07:25 PM 61.6°F16.4°C 59.9°F15.5°C 94% 1.0 mph W1.6 kmh W 4.0 mph6.4 kmh 29.94 in1013.9 mb 0.00 in0.0 mm 0.00 in0.0 mm 0.05 in1.3 mm
07:26 PM 61.5°F16.4°C 59.8°F15.4°C 94% 1.0 mph W1.6 kmh W 4.0 mph6.4 kmh 29.95 in1014.2 mb 0.00 in0.0 mm 0.00 in0.0 mm 0.05 in1.3 mm
07:27 PM 61.5°F16.4°C 59.8°F15.4°C 94% 1.0 mph W1.6 kmh W 4.0 mph6.4 kmh 29.95 in1014.2 mb 0.00 in0.0 mm 0.00 in0.0 mm 0.05 in1.3 mm
07:28 PM 61.5°F16.4°C 59.8°F15.4°C 94% 1.0 mph W1.6 kmh W 4.0 mph6.4 kmh 29.94 in1013.9 mb 0.00 in0.0 mm 0.00 in0.0 mm 0.05 in1.3 mm
07:29 PM 61.5°F16.4°C 59.8°F15.4°C 94% 1.0 mph W1.6 kmh W 4.0 mph6.4 kmh 29.94 in1013.9 mb 0.00 in0.0 mm 0.00 in0.0 mm 0.05 in1.3 mm
07:30 PM 61.5°F16.4°C 59.8°F15.4°C 94% 1.0 mph W1.6 kmh W 4.0 mph6.4 kmh 29.94 in1013.9 mb 0.00 in0.0 mm 0.00 in0.0 mm 0.05 in1.3 mm
07:31 PM 61.5°F16.4°C 59.8°F15.4°C 94% 1.0 mph W1.6 kmh W 4.0 mph6.4 kmh 29.94 in1013.9 mb 0.00 in0.0 mm 0.00 in0.0 mm 0.05 in1.3 mm
07:34 PM 61.5°F16.4°C 59.8°F15.4°C 94% 1.0 mph W1.6 kmh W 3.0 mph4.8 kmh 29.95 in1014.2 mb 0.00 in0.0 mm 0.00 in0.0 mm 0.05 in1.3 mm
07:35 PM 61.5°F16.4°C 59.8°F15.4°C 94% 1.0 mph W1.6 kmh W 3.0 mph4.8 kmh 29.95 in1014.2 mb 0.00 in0.0 mm 0.00 in0.0 mm 0.05 in1.3 mm
07:37 PM 61.5°F16.4°C 59.8°F15.4°C 94% 1.0 mph W1.6 kmh W 4.0 mph6.4 kmh 29.94 in1013.9 mb 0.00 in0.0 mm 0.00 in0.0 mm 0.05 in1.3 mm
07:38 PM 61.5°F16.4°C 59.8°F15.4°C 94% 1.0 mph W1.6 kmh W 4.0 mph6.4 kmh 29.94 in1013.9 mb 0.00 in0.0 mm 0.00 in0.0 mm 0.05 in1.3 mm
07:40 PM 61.4°F16.3°C 59.7°F15.4°C 94% 1.0 mph W1.6 kmh W 4.0 mph6.4 kmh 29.93 in1013.5 mb 0.00 in0.0 mm 0.00 in0.0 mm 0.05 in1.3 mm
07:41 PM 61.4°F16.3°C 59.7°F15.4°C 94% 1.0 mph W1.6 kmh W 4.0 mph6.4 kmh 29.94 in1013.9 mb 0.00 in0.0 mm 0.00 in0.0 mm 0.05 in1.3 mm
07:44 PM 61.4°F16.3°C 59.7°F15.4°C 94% Calm Calm 4.0 mph6.4 kmh 29.94 in1013.9 mb 0.00 in0.0 mm 0.00 in0.0 mm 0.05 in1.3 mm
07:45 PM 61.4°F16.3°C 59.7°F15.4°C 94% Calm Calm 4.0 mph6.4 kmh 29.94 in1013.9 mb 0.00 in0.0 mm 0.00 in0.0 mm 0.05 in1.3 mm
07:47 PM 61.4°F16.3°C 59.7°F15.4°C 94% Calm Calm 3.0 mph4.8 kmh 29.95 in1014.2 mb 0.00 in0.0 mm 0.00 in0.0 mm 0.05 in1.3 mm
07:50 PM 61.4°F16.3°C 59.7°F15.4°C 94% Calm Calm 3.0 mph4.8 kmh 29.95 in1014.2 mb 0.00 in0.0 mm 0.00 in0.0 mm 0.05 in1.3 mm
07:54 PM 61.4°F16.3°C 59.7°F15.4°C 94% 1.0 mph W1.6 kmh W 4.0 mph6.4 kmh 29.96 in1014.6 mb 0.00 in0.0 mm 0.00 in0.0 mm 0.05 in1.3 mm
07:55 PM 61.4°F16.3°C 59.7°F15.4°C 94% 1.0 mph W1.6 kmh W 4.0 mph6.4 kmh 29.97 in1014.9 mb 0.00 in0.0 mm 0.00 in0.0 mm 0.05 in1.3 mm
07:56 PM 61.4°F16.3°C 59.7°F15.4°C 94% 1.0 mph W1.6 kmh W 4.0 mph6.4 kmh 29.97 in1014.9 mb 0.00 in0.0 mm 0.00 in0.0 mm 0.05 in1.3 mm
07:57 PM 61.4°F16.3°C 59.7°F15.4°C 94% 1.0 mph W1.6 kmh W 4.0 mph6.4 kmh 29.97 in1014.9 mb 0.00 in0.0 mm 0.00 in0.0 mm 0.05 in1.3 mm
07:58 PM 61.4°F16.3°C 59.7°F15.4°C 94% 1.0 mph W1.6 kmh W 4.0 mph6.4 kmh 29.96 in1014.6 mb 0.00 in0.0 mm 0.00 in0.0 mm 0.05 in1.3 mm
08:00 PM 61.3°F16.3°C 59.6°F15.3°C 94% 1.0 mph W1.6 kmh W 4.0 mph6.4 kmh 29.96 in1014.6 mb 0.00 in0.0 mm 0.00 in0.0 mm 0.05 in1.3 mm
08:01 PM 61.4°F16.3°C 59.7°F15.4°C 94% 1.0 mph W1.6 kmh W 4.0 mph6.4 kmh 29.96 in1014.6 mb 0.00 in0.0 mm 0.00 in0.0 mm 0.05 in1.3 mm
08:02 PM 61.3°F16.3°C 59.6°F15.3°C 94% 1.0 mph W1.6 kmh W 4.0 mph6.4 kmh 29.96 in1014.6 mb 0.00 in0.0 mm 0.00 in0.0 mm 0.05 in1.3 mm
08:03 PM 61.3°F16.3°C 59.6°F15.3°C 94% 1.0 mph W1.6 kmh W 4.0 mph6.4 kmh 29.97 in1014.9 mb 0.00 in0.0 mm 0.00 in0.0 mm 0.05 in1.3 mm
08:04 PM 61.3°F16.3°C 59.6°F15.3°C 94% 1.0 mph W1.6 kmh W 4.0 mph6.4 kmh 29.96 in1014.6 mb 0.00 in0.0 mm 0.00 in0.0 mm 0.05 in1.3 mm
08:05 PM 61.3°F16.3°C 59.6°F15.3°C 94% 1.0 mph W1.6 kmh W 4.0 mph6.4 kmh 29.96 in1014.6 mb 0.00 in0.0 mm 0.00 in0.0 mm 0.05 in1.3 mm
08:06 PM 61.3°F16.3°C 59.6°F15.3°C 94% 1.0 mph W1.6 kmh W 4.0 mph6.4 kmh 29.97 in1014.9 mb 0.00 in0.0 mm 0.00 in0.0 mm 0.05 in1.3 mm
08:07 PM 61.3°F16.3°C 59.6°F15.3°C 94% 1.0 mph W1.6 kmh W 4.0 mph6.4 kmh 29.97 in1014.9 mb 0.00 in0.0 mm 0.00 in0.0 mm 0.05 in1.3 mm
08:08 PM 61.3°F16.3°C 59.6°F15.3°C 94% 1.0 mph W1.6 kmh W 4.0 mph6.4 kmh 29.97 in1014.9 mb 0.00 in0.0 mm 0.00 in0.0 mm 0.05 in1.3 mm
08:09 PM 61.3°F16.3°C 59.9°F15.5°C 95% 1.0 mph W1.6 kmh W 4.0 mph6.4 kmh 29.97 in1014.9 mb 0.00 in0.0 mm 0.00 in0.0 mm 0.05 in1.3 mm
08:10 PM 61.3°F16.3°C 59.9°F15.5°C 95% 1.0 mph W1.6 kmh W 4.0 mph6.4 kmh 29.97 in1014.9 mb 0.00 in0.0 mm 0.00 in0.0 mm 0.05 in1.3 mm
08:11 PM 61.3°F16.3°C 59.9°F15.5°C 95% 1.0 mph W1.6 kmh W 4.0 mph6.4 kmh 29.96 in1014.6 mb 0.00 in0.0 mm 0.00 in0.0 mm 0.05 in1.3 mm
08:12 PM 61.3°F16.3°C 59.9°F15.5°C 95% 1.0 mph W1.6 kmh W 4.0 mph6.4 kmh 29.96 in1014.6 mb 0.00 in0.0 mm 0.00 in0.0 mm 0.05 in1.3 mm
08:13 PM 61.3°F16.3°C 59.9°F15.5°C 95% 1.0 mph W1.6 kmh W 4.0 mph6.4 kmh 29.97 in1014.9 mb 0.00 in0.0 mm 0.00 in0.0 mm 0.05 in1.3 mm
08:14 PM 61.3°F16.3°C 59.9°F15.5°C 95% 1.0 mph W1.6 kmh W 4.0 mph6.4 kmh 29.97 in1014.9 mb 0.00 in0.0 mm 0.00 in0.0 mm 0.05 in1.3 mm
08:15 PM 61.3°F16.3°C 59.9°F15.5°C 95% 1.0 mph W1.6 kmh W 6.0 mph9.7 kmh 29.97 in1014.9 mb 0.00 in0.0 mm 0.00 in0.0 mm 0.05 in1.3 mm
08:16 PM 61.3°F16.3°C 59.9°F15.5°C 95% 1.0 mph W1.6 kmh W 6.0 mph9.7 kmh 29.97 in1014.9 mb 0.00 in0.0 mm 0.00 in0.0 mm 0.05 in1.3 mm
08:17 PM 61.2°F16.2°C 59.8°F15.4°C 95% 1.0 mph W1.6 kmh W 6.0 mph9.7 kmh 29.97 in1014.9 mb 0.00 in0.0 mm 0.00 in0.0 mm 0.05 in1.3 mm
08:18 PM 61.2°F16.2°C 59.8°F15.4°C 95% 1.0 mph W1.6 kmh W 6.0 mph9.7 kmh 29.97 in1014.9 mb 0.00 in0.0 mm 0.00 in0.0 mm 0.05 in1.3 mm
08:19 PM 61.2°F16.2°C 59.8°F15.4°C 95% 1.0 mph W1.6 kmh W 6.0 mph9.7 kmh 29.97 in1014.9 mb 0.00 in0.0 mm 0.00 in0.0 mm 0.05 in1.3 mm
08:20 PM 61.2°F16.2°C 59.8°F15.4°C 95% 1.0 mph W1.6 kmh W 6.0 mph9.7 kmh 29.97 in1014.9 mb 0.00 in0.0 mm 0.00 in0.0 mm 0.05 in1.3 mm
08:21 PM 61.2°F16.2°C 59.8°F15.4°C 95% 1.0 mph W1.6 kmh W 6.0 mph9.7 kmh 29.97 in1014.9 mb 0.00 in0.0 mm 0.00 in0.0 mm 0.05 in1.3 mm
08:22 PM 61.2°F16.2°C 59.8°F15.4°C 95% 1.0 mph WNW1.6 kmh WNW 6.0 mph9.7 kmh 29.97 in1014.9 mb 0.00 in0.0 mm 0.00 in0.0 mm 0.05 in1.3 mm
08:23 PM 61.2°F16.2°C 59.8°F15.4°C 95% 1.0 mph WNW1.6 kmh WNW 7.0 mph11.3 kmh 29.97 in1014.9 mb 0.00 in0.0 mm 0.00 in0.0 mm 0.05 in1.3 mm
08:24 PM 61.2°F16.2°C 59.8°F15.4°C 95% 1.0 mph NW1.6 kmh NW 10.0 mph16.1 kmh 29.96 in1014.6 mb 0.00 in0.0 mm 0.00 in0.0 mm 0.05 in1.3 mm
08:25 PM 61.1°F16.2°C 59.7°F15.4°C 95% 2.0 mph NW3.2 kmh NW 10.0 mph16.1 kmh 29.97 in1014.9 mb 0.00 in0.0 mm 0.00 in0.0 mm 0.05 in1.3 mm
08:26 PM 61.2°F16.2°C 59.5°F15.3°C 94% 2.0 mph NW3.2 kmh NW 10.0 mph16.1 kmh 29.97 in1014.9 mb 0.00 in0.0 mm 0.00 in0.0 mm 0.05 in1.3 mm
08:27 PM 61.1°F16.2°C 59.4°F15.2°C 94% 2.0 mph NW3.2 kmh NW 10.0 mph16.1 kmh 29.97 in1014.9 mb 0.00 in0.0 mm 0.00 in0.0 mm 0.05 in1.3 mm
08:28 PM 61.1°F16.2°C 59.4°F15.2°C 94% 2.0 mph NW3.2 kmh NW 10.0 mph16.1 kmh 29.97 in1014.9 mb 0.00 in0.0 mm 0.00 in0.0 mm 0.05 in1.3 mm
08:29 PM 61.1°F16.2°C 59.4°F15.2°C 94% 3.0 mph NW4.8 kmh NW 10.0 mph16.1 kmh 29.97 in1014.9 mb 0.00 in0.0 mm 0.00 in0.0 mm 0.05 in1.3 mm
08:30 PM 61.2°F16.2°C 59.5°F15.3°C 94% 3.0 mph NW4.8 kmh NW 10.0 mph16.1 kmh 29.97 in1014.9 mb 0.00 in0.0 mm 0.00 in0.0 mm 0.05 in1.3 mm
08:31 PM 61.2°F16.2°C 59.5°F15.3°C 94% 4.0 mph NW6.4 kmh NW 10.0 mph16.1 kmh 29.97 in1014.9 mb 0.00 in0.0 mm 0.00 in0.0 mm 0.05 in1.3 mm
08:32 PM 61.2°F16.2°C 59.5°F15.3°C 94% 4.0 mph NW6.4 kmh NW 10.0 mph16.1 kmh 29.96 in1014.6 mb 0.00 in0.0 mm 0.00 in0.0 mm 0.05 in1.3 mm
08:33 PM 61.2°F16.2°C 59.5°F15.3°C 94% 4.0 mph NW6.4 kmh NW 10.0 mph16.1 kmh 29.96 in1014.6 mb 0.00 in0.0 mm 0.00 in0.0 mm 0.05 in1.3 mm
08:34 PM 61.2°F16.2°C 59.5°F15.3°C 94% 4.0 mph NW6.4 kmh NW 10.0 mph16.1 kmh 29.96 in1014.6 mb 0.00 in0.0 mm 0.00 in0.0 mm 0.05 in1.3 mm
08:35 PM 61.2°F16.2°C 59.5°F15.3°C 94% 4.0 mph NW6.4 kmh NW 10.0 mph16.1 kmh 29.96 in1014.6 mb 0.00 in0.0 mm 0.00 in0.0 mm 0.05 in1.3 mm
08:36 PM 61.2°F16.2°C 59.5°F15.3°C 94% 4.0 mph NW6.4 kmh NW 10.0 mph16.1 kmh 29.96 in1014.6 mb 0.00 in0.0 mm 0.00 in0.0 mm 0.05 in1.3 mm
08:37 PM 61.3°F16.3°C 59.6°F15.3°C 94% 4.0 mph NW6.4 kmh NW 10.0 mph16.1 kmh 29.96 in1014.6 mb 0.00 in0.0 mm 0.00 in0.0 mm 0.05 in1.3 mm
08:38 PM 61.3°F16.3°C 59.6°F15.3°C 94% 4.0 mph NW6.4 kmh NW 10.0 mph16.1 kmh 29.96 in1014.6 mb 0.00 in0.0 mm 0.00 in0.0 mm 0.05 in1.3 mm
08:39 PM 61.3°F16.3°C 59.6°F15.3°C 94% 4.0 mph WNW6.4 kmh WNW 10.0 mph16.1 kmh 29.97 in1014.9 mb 0.00 in0.0 mm 0.00 in0.0 mm 0.05 in1.3 mm
08:40 PM 61.3°F16.3°C 59.6°F15.3°C 94% 3.0 mph WNW4.8 kmh WNW 9.0 mph14.5 kmh 29.97 in1014.9 mb 0.00 in0.0 mm 0.00 in0.0 mm 0.05 in1.3 mm
08:41 PM 61.3°F16.3°C 59.6°F15.3°C 94% 3.0 mph WNW4.8 kmh WNW 9.0 mph14.5 kmh 29.97 in1014.9 mb 0.00 in0.0 mm 0.00 in0.0 mm 0.05 in1.3 mm
08:42 PM 61.3°F16.3°C 59.6°F15.3°C 94% 4.0 mph WNW6.4 kmh WNW 9.0 mph14.5 kmh 29.97 in1014.9 mb 0.00 in0.0 mm 0.00 in0.0 mm 0.05 in1.3 mm
08:43 PM 61.3°F16.3°C 59.6°F15.3°C 94% 4.0 mph WNW6.4 kmh WNW 9.0 mph14.5 kmh 29.97 in1014.9 mb 0.00 in0.0 mm 0.00 in0.0 mm 0.05 in1.3 mm
08:44 PM 61.3°F16.3°C 59.6°F15.3°C 94% 4.0 mph WNW6.4 kmh WNW 9.0 mph14.5 kmh 29.97 in1014.9 mb 0.00 in0.0 mm 0.00 in0.0 mm 0.05 in1.3 mm
08:45 PM 61.3°F16.3°C 59.6°F15.3°C 94% 4.0 mph WNW6.4 kmh WNW 9.0 mph14.5 kmh 29.96 in1014.6 mb 0.00 in0.0 mm 0.00 in0.0 mm 0.05 in1.3 mm
08:46 PM 61.3°F16.3°C 59.6°F15.3°C 94% 4.0 mph W6.4 kmh W 9.0 mph14.5 kmh 29.97 in1014.9 mb 0.00 in0.0 mm 0.00 in0.0 mm 0.05 in1.3 mm
08:47 PM 61.3°F16.3°C 59.6°F15.3°C 94% 4.0 mph W6.4 kmh W 9.0 mph14.5 kmh 29.97 in1014.9 mb 0.00 in0.0 mm 0.00 in0.0 mm 0.05 in1.3 mm
08:49 PM 61.3°F16.3°C 59.6°F15.3°C 94% 4.0 mph W6.4 kmh W 9.0 mph14.5 kmh 29.96 in1014.6 mb 0.00 in0.0 mm 0.00 in0.0 mm 0.05 in1.3 mm
08:50 PM 61.3°F16.3°C 59.6°F15.3°C 94% 4.0 mph W6.4 kmh W 9.0 mph14.5 kmh 29.97 in1014.9 mb 0.00 in0.0 mm 0.00 in0.0 mm 0.05 in1.3 mm
08:51 PM 61.3°F16.3°C 59.6°F15.3°C 94% 4.0 mph WNW6.4 kmh WNW 8.0 mph12.9 kmh 29.96 in1014.6 mb 0.00 in0.0 mm 0.00 in0.0 mm 0.05 in1.3 mm
08:52 PM 61.3°F16.3°C 59.6°F15.3°C 94% 4.0 mph WNW6.4 kmh WNW 8.0 mph12.9 kmh 29.97 in1014.9 mb 0.00 in0.0 mm 0.00 in0.0 mm 0.05 in1.3 mm
08:53 PM 61.3°F16.3°C 59.6°F15.3°C 94% 4.0 mph WNW6.4 kmh WNW 8.0 mph12.9 kmh 29.96 in1014.6 mb 0.00 in0.0 mm 0.00 in0.0 mm 0.05 in1.3 mm
08:54 PM 61.3°F16.3°C 59.6°F15.3°C 94% 3.0 mph WNW4.8 kmh WNW 8.0 mph12.9 kmh 29.96 in1014.6 mb 0.00 in0.0 mm 0.00 in0.0 mm 0.05 in1.3 mm
08:55 PM 61.3°F16.3°C 59.6°F15.3°C 94% 3.0 mph WNW4.8 kmh WNW 8.0 mph12.9 kmh 29.97 in1014.9 mb 0.00 in0.0 mm 0.00 in0.0 mm 0.05 in1.3 mm
08:56 PM 61.3°F16.3°C 59.6°F15.3°C 94% 4.0 mph WNW6.4 kmh WNW 8.0 mph12.9 kmh 29.96 in1014.6 mb 0.00 in0.0 mm 0.00 in0.0 mm 0.05 in1.3 mm
08:57 PM 61.3°F16.3°C 59.6°F15.3°C 94% 4.0 mph WNW6.4 kmh WNW 8.0 mph12.9 kmh 29.96 in1014.6 mb 0.00 in0.0 mm 0.00 in0.0 mm 0.05 in1.3 mm
08:58 PM 61.3°F16.3°C 59.6°F15.3°C 94% 4.0 mph WNW6.4 kmh WNW 8.0 mph12.9 kmh 29.96 in1014.6 mb 0.00 in0.0 mm 0.00 in0.0 mm 0.05 in1.3 mm
08:59 PM 61.3°F16.3°C 59.6°F15.3°C 94% 3.0 mph WNW4.8 kmh WNW 8.0 mph12.9 kmh 29.96 in1014.6 mb 0.00 in0.0 mm 0.00 in0.0 mm 0.05 in1.3 mm
09:00 PM 61.3°F16.3°C 59.6°F15.3°C 94% 3.0 mph WNW4.8 kmh WNW 8.0 mph12.9 kmh 29.96 in1014.6 mb 0.00 in0.0 mm 0.00 in0.0 mm 0.05 in1.3 mm
09:01 PM 61.3°F16.3°C 59.6°F15.3°C 94% 3.0 mph WNW4.8 kmh WNW 8.0 mph12.9 kmh 29.97 in1014.9 mb 0.00 in0.0 mm 0.00 in0.0 mm 0.05 in1.3 mm
09:02 PM 61.3°F16.3°C 59.6°F15.3°C 94% 3.0 mph WNW4.8 kmh WNW 8.0 mph12.9 kmh 29.97 in1014.9 mb 0.00 in0.0 mm 0.00 in0.0 mm 0.05 in1.3 mm
09:03 PM 61.3°F16.3°C 59.6°F15.3°C 94% 3.0 mph WNW4.8 kmh WNW 8.0 mph12.9 kmh 29.97 in1014.9 mb 0.00 in0.0 mm 0.00 in0.0 mm 0.05 in1.3 mm
09:04 PM 61.3°F16.3°C 59.6°F15.3°C 94% 4.0 mph WNW6.4 kmh WNW 9.0 mph14.5 kmh 29.97 in1014.9 mb 0.00 in0.0 mm 0.00 in0.0 mm 0.05 in1.3 mm
09:05 PM 61.3°F16.3°C 59.6°F15.3°C 94% 4.0 mph WNW6.4 kmh WNW 9.0 mph14.5 kmh 29.97 in1014.9 mb 0.00 in0.0 mm 0.00 in0.0 mm 0.05 in1.3 mm
09:06 PM 61.3°F16.3°C 59.6°F15.3°C 94% 3.0 mph W4.8 kmh W 9.0 mph14.5 kmh 29.98 in1015.2 mb 0.00 in0.0 mm 0.00 in0.0 mm 0.05 in1.3 mm
09:07 PM 61.3°F16.3°C 59.6°F15.3°C 94% 3.0 mph W4.8 kmh W 9.0 mph14.5 kmh 29.98 in1015.2 mb 0.00 in0.0 mm 0.00 in0.0 mm 0.05 in1.3 mm
09:08 PM 61.3°F16.3°C 59.6°F15.3°C 94% 3.0 mph W4.8 kmh W 9.0 mph14.5 kmh 29.98 in1015.2 mb 0.00 in0.0 mm 0.00 in0.0 mm 0.05 in1.3 mm
09:09 PM 61.2°F16.2°C 59.5°F15.3°C 94% 3.0 mph W4.8 kmh W 9.0 mph14.5 kmh 29.98 in1015.2 mb 0.00 in0.0 mm 0.00 in0.0 mm 0.05 in1.3 mm
09:10 PM 61.2°F16.2°C 59.5°F15.3°C 94% 4.0 mph W6.4 kmh W 9.0 mph14.5 kmh 29.98 in1015.2 mb 0.00 in0.0 mm 0.00 in0.0 mm 0.05 in1.3 mm
09:11 PM 61.2°F16.2°C 59.5°F15.3°C 94% 4.0 mph W6.4 kmh W 9.0 mph14.5 kmh 29.98 in1015.2 mb 0.00 in0.0 mm 0.00 in0.0 mm 0.05 in1.3 mm
09:12 PM 61.2°F16.2°C 59.5°F15.3°C 94% 4.0 mph W6.4 kmh W 9.0 mph14.5 kmh 29.98 in1015.2 mb 0.00 in0.0 mm 0.00 in0.0 mm 0.05 in1.3 mm
09:13 PM 61.2°F16.2°C 59.2°F15.1°C 93% 4.0 mph W6.4 kmh W 9.0 mph14.5 kmh 29.98 in1015.2 mb 0.00 in0.0 mm 0.00 in0.0 mm 0.05 in1.3 mm
09:14 PM 61.2°F16.2°C 59.5°F15.3°C 94% 3.0 mph W4.8 kmh W 7.0 mph11.3 kmh 29.98 in1015.2 mb 0.00 in0.0 mm 0.00 in0.0 mm 0.05 in1.3 mm
09:15 PM 61.2°F16.2°C 59.2°F15.1°C 93% 4.0 mph W6.4 kmh W 7.0 mph11.3 kmh 29.98 in1015.2 mb 0.00 in0.0 mm 0.00 in0.0 mm 0.05 in1.3 mm
09:16 PM 61.2°F16.2°C 59.2°F15.1°C 93% 4.0 mph W6.4 kmh W 7.0 mph11.3 kmh 29.98 in1015.2 mb 0.00 in0.0 mm 0.00 in0.0 mm 0.05 in1.3 mm
09:17 PM 61.2°F16.2°C 59.2°F15.1°C 93% 4.0 mph W6.4 kmh W 7.0 mph11.3 kmh 29.98 in1015.2 mb 0.00 in0.0 mm 0.00 in0.0 mm 0.05 in1.3 mm
09:18 PM 61.2°F16.2°C 59.2°F15.1°C 93% 4.0 mph W6.4 kmh W 7.0 mph11.3 kmh 29.99 in1015.6 mb 0.00 in0.0 mm 0.00 in0.0 mm 0.05 in1.3 mm
09:19 PM 61.2°F16.2°C 59.2°F15.1°C 93% 4.0 mph W6.4 kmh W 7.0 mph11.3 kmh 29.98 in1015.2 mb 0.00 in0.0 mm 0.00 in0.0 mm 0.05 in1.3 mm
09:20 PM 61.2°F16.2°C 59.2°F15.1°C 93% 4.0 mph W6.4 kmh W 7.0 mph11.3 kmh 29.98 in1015.2 mb 0.00 in0.0 mm 0.00 in0.0 mm 0.05 in1.3 mm
09:21 PM 61.2°F16.2°C 59.2°F15.1°C 93% 4.0 mph WNW6.4 kmh WNW 9.0 mph14.5 kmh 29.98 in1015.2 mb 0.00 in0.0 mm 0.00 in0.0 mm 0.05 in1.3 mm
09:22 PM 61.2°F16.2°C 59.2°F15.1°C 93% 4.0 mph WNW6.4 kmh WNW 9.0 mph14.5 kmh 29.98 in1015.2 mb 0.00 in0.0 mm 0.00 in0.0 mm 0.05 in1.3 mm
09:23 PM 61.2°F16.2°C 59.2°F15.1°C 93% 4.0 mph WNW6.4 kmh WNW 9.0 mph14.5 kmh 29.98 in1015.2 mb 0.00 in0.0 mm 0.00 in0.0 mm 0.05 in1.3 mm
09:24 PM 61.1°F16.2°C 59.1°F15.1°C 93% 4.0 mph WNW6.4 kmh WNW 9.0 mph14.5 kmh 29.98 in1015.2 mb 0.00 in0.0 mm 0.00 in0.0 mm 0.05 in1.3 mm
09:25 PM 61.1°F16.2°C 59.1°F15.1°C 93% 4.0 mph WNW6.4 kmh WNW 9.0 mph14.5 kmh 29.98 in1015.2 mb 0.00 in0.0 mm 0.00 in0.0 mm 0.05 in1.3 mm
09:26 PM 61.1°F16.2°C 59.1°F15.1°C 93% 4.0 mph WNW6.4 kmh WNW 9.0 mph14.5 kmh 29.98 in1015.2 mb 0.00 in0.0 mm 0.00 in0.0 mm 0.05 in1.3 mm
09:27 PM 61.1°F16.2°C 59.1°F15.1°C 93% 4.0 mph WNW6.4 kmh WNW 9.0 mph14.5 kmh 29.98 in1015.2 mb 0.00 in0.0 mm 0.00 in0.0 mm 0.05 in1.3 mm
09:28 PM 61.1°F16.2°C 59.1°F15.1°C 93% 4.0 mph NW6.4 kmh NW 9.0 mph14.5 kmh 29.98 in1015.2 mb 0.00 in0.0 mm 0.00 in0.0 mm 0.05 in1.3 mm
09:29 PM 61.1°F16.2°C 59.1°F15.1°C 93% 4.0 mph NW6.4 kmh NW 9.0 mph14.5 kmh 29.98 in1015.2 mb 0.00 in0.0 mm 0.00 in0.0 mm 0.05 in1.3 mm
09:30 PM 61.1°F16.2°C 59.1°F15.1°C 93% 4.0 mph NW6.4 kmh NW 9.0 mph14.5 kmh 29.98 in1015.2 mb 0.00 in0.0 mm 0.00 in0.0 mm 0.05 in1.3 mm
09:31 PM 61.1°F16.2°C 59.1°F15.1°C 93% 4.0 mph NW6.4 kmh NW 9.0 mph14.5 kmh 29.98 in1015.2 mb 0.00 in0.0 mm 0.00 in0.0 mm 0.05 in1.3 mm
09:32 PM 61.1°F16.2°C 59.1°F15.1°C 93% 4.0 mph WNW6.4 kmh WNW 9.0 mph14.5 kmh 29.99 in1015.6 mb 0.00 in0.0 mm 0.00 in0.0 mm 0.05 in1.3 mm
09:33 PM 61.1°F16.2°C 59.1°F15.1°C 93% 4.0 mph WNW6.4 kmh WNW 9.0 mph14.5 kmh 29.99 in1015.6 mb 0.00 in0.0 mm 0.00 in0.0 mm 0.05 in1.3 mm
09:34 PM 61.1°F16.2°C 59.1°F15.1°C 93% 4.0 mph WNW6.4 kmh WNW 9.0 mph14.5 kmh 29.99 in1015.6 mb 0.00 in0.0 mm 0.00 in0.0 mm 0.05 in1.3 mm
09:35 PM 61.1°F16.2°C 59.1°F15.1°C 93% 4.0 mph WNW6.4 kmh WNW 9.0 mph14.5 kmh 29.99 in1015.6 mb 0.00 in0.0 mm 0.00 in0.0 mm 0.05 in1.3 mm
09:36 PM 61.1°F16.2°C 59.1°F15.1°C 93% 4.0 mph WNW6.4 kmh WNW 9.0 mph14.5 kmh 29.99 in1015.6 mb 0.00 in0.0 mm 0.00 in0.0 mm 0.05 in1.3 mm
09:37 PM 61.1°F16.2°C 59.1°F15.1°C 93% 4.0 mph WNW6.4 kmh WNW 9.0 mph14.5 kmh 29.98 in1015.2 mb 0.00 in0.0 mm 0.00 in0.0 mm 0.05 in1.3 mm
09:38 PM 61.1°F16.2°C 59.1°F15.1°C 93% 4.0 mph W6.4 kmh W 9.0 mph14.5 kmh 29.99 in1015.6 mb 0.00 in0.0 mm 0.00 in0.0 mm 0.05 in1.3 mm
09:39 PM 61.1°F16.2°C 59.1°F15.1°C 93% 4.0 mph W6.4 kmh W 9.0 mph14.5 kmh 29.99 in1015.6 mb 0.00 in0.0 mm 0.00 in0.0 mm 0.05 in1.3 mm
09:40 PM 61.1°F16.2°C 59.1°F15.1°C 93% 4.0 mph W6.4 kmh W 9.0 mph14.5 kmh 30.00 in1015.9 mb 0.00 in0.0 mm 0.00 in0.0 mm 0.05 in1.3 mm
09:41 PM 61.1°F16.2°C 59.1°F15.1°C 93% 4.0 mph W6.4 kmh W 9.0 mph14.5 kmh 29.99 in1015.6 mb 0.00 in0.0 mm 0.00 in0.0 mm 0.05 in1.3 mm
09:42 PM 61.0°F16.1°C 59.0°F15.0°C 93% 4.0 mph W6.4 kmh W 9.0 mph14.5 kmh 29.98 in1015.2 mb 0.00 in0.0 mm 0.00 in0.0 mm 0.05 in1.3 mm
09:43 PM 61.0°F16.1°C 59.0°F15.0°C 93% 4.0 mph WNW6.4 kmh WNW 9.0 mph14.5 kmh 29.99 in1015.6 mb 0.00 in0.0 mm 0.00 in0.0 mm 0.05 in1.3 mm
09:44 PM 61.0°F16.1°C 59.0°F15.0°C 93% 4.0 mph WNW6.4 kmh WNW 8.0 mph12.9 kmh 29.99 in1015.6 mb 0.00 in0.0 mm 0.00 in0.0 mm 0.05 in1.3 mm
09:45 PM 61.0°F16.1°C 59.0°F15.0°C 93% 4.0 mph WNW6.4 kmh WNW 8.0 mph12.9 kmh 29.99 in1015.6 mb 0.00 in0.0 mm 0.00 in0.0 mm 0.05 in1.3 mm
09:46 PM 61.0°F16.1°C 59.0°F15.0°C 93% 4.0 mph WNW6.4 kmh WNW 8.0 mph12.9 kmh 29.99 in1015.6 mb 0.00 in0.0 mm 0.00 in0.0 mm 0.05 in1.3 mm
09:47 PM 61.0°F16.1°C 59.0°F15.0°C 93% 3.0 mph WNW4.8 kmh WNW 8.0 mph12.9 kmh 29.99 in1015.6 mb 0.00 in0.0 mm 0.00 in0.0 mm 0.05 in1.3 mm
09:48 PM 61.0°F16.1°C 59.0°F15.0°C 93% 3.0 mph WNW4.8 kmh WNW 8.0 mph12.9 kmh 29.98 in1015.2 mb 0.00 in0.0 mm 0.00 in0.0 mm 0.05 in1.3 mm
09:49 PM 61.0°F16.1°C 59.0°F15.0°C 93% 3.0 mph WNW4.8 kmh WNW 8.0 mph12.9 kmh 29.98 in1015.2 mb 0.00 in0.0 mm 0.00 in0.0 mm 0.05 in1.3 mm
09:50 PM 61.0°F16.1°C 59.0°F15.0°C 93% 3.0 mph WNW4.8 kmh WNW 8.0 mph12.9 kmh 29.99 in1015.6 mb 0.00 in0.0 mm 0.00 in0.0 mm 0.05 in1.3 mm
09:51 PM 61.0°F16.1°C 59.0°F15.0°C 93% 4.0 mph WNW6.4 kmh WNW 8.0 mph12.9 kmh 29.99 in1015.6 mb 0.00 in0.0 mm 0.00 in0.0 mm 0.05 in1.3 mm
09:52 PM 61.0°F16.1°C 59.0°F15.0°C 93% 4.0 mph W6.4 kmh W 8.0 mph12.9 kmh 29.99 in1015.6 mb 0.00 in0.0 mm 0.00 in0.0 mm 0.05 in1.3 mm
09:53 PM 61.0°F16.1°C 59.0°F15.0°C 93% 4.0 mph W6.4 kmh W 8.0 mph12.9 kmh 30.00 in1015.9 mb 0.00 in0.0 mm 0.00 in0.0 mm 0.05 in1.3 mm
09:54 PM 60.9°F16.1°C 58.9°F14.9°C 93% 4.0 mph W6.4 kmh W 8.0 mph12.9 kmh 29.99 in1015.6 mb 0.00 in0.0 mm 0.00 in0.0 mm 0.05 in1.3 mm
09:55 PM 60.9°F16.1°C 58.9°F14.9°C 93% 4.0 mph W6.4 kmh W 8.0 mph12.9 kmh 29.99 in1015.6 mb 0.00 in0.0 mm 0.00 in0.0 mm 0.05 in1.3 mm
09:56 PM 60.9°F16.1°C 58.9°F14.9°C 93% 4.0 mph W6.4 kmh W 8.0 mph12.9 kmh 29.98 in1015.2 mb 0.00 in0.0 mm 0.00 in0.0 mm 0.05 in1.3 mm
09:57 PM 60.9°F16.1°C 58.9°F14.9°C 93% 4.0 mph W6.4 kmh W 8.0 mph12.9 kmh 29.98 in1015.2 mb 0.00 in0.0 mm 0.00 in0.0 mm 0.05 in1.3 mm
09:58 PM 60.9°F16.1°C 58.9°F14.9°C 93% 4.0 mph WNW6.4 kmh WNW 8.0 mph12.9 kmh 29.98 in1015.2 mb 0.00 in0.0 mm 0.00 in0.0 mm 0.05 in1.3 mm
09:59 PM 60.9°F16.1°C 58.9°F14.9°C 93% 4.0 mph WNW6.4 kmh WNW 8.0 mph12.9 kmh 29.98 in1015.2 mb 0.00 in0.0 mm 0.00 in0.0 mm 0.05 in1.3 mm
10:00 PM 60.9°F16.1°C 58.9°F14.9°C 93% 3.0 mph WNW4.8 kmh WNW 7.0 mph11.3 kmh 29.99 in1015.6 mb 0.00 in0.0 mm 0.00 in0.0 mm 0.05 in1.3 mm
10:01 PM 60.9°F16.1°C 58.9°F14.9°C 93% 4.0 mph WNW6.4 kmh WNW 11.0 mph17.7 kmh 29.99 in1015.6 mb 0.00 in0.0 mm 0.00 in0.0 mm 0.05 in1.3 mm
10:02 PM 60.9°F16.1°C 58.9°F14.9°C 93% 4.0 mph WNW6.4 kmh WNW 11.0 mph17.7 kmh 29.99 in1015.6 mb 0.00 in0.0 mm 0.00 in0.0 mm 0.05 in1.3 mm
10:03 PM 60.8°F16.0°C 58.8°F14.9°C 93% 4.0 mph WNW6.4 kmh WNW 11.0 mph17.7 kmh 29.99 in1015.6 mb 0.00 in0.0 mm 0.00 in0.0 mm 0.05 in1.3 mm
10:04 PM 60.8°F16.0°C 58.8°F14.9°C 93% 4.0 mph WNW6.4 kmh WNW 11.0 mph17.7 kmh 29.99 in1015.6 mb 0.00 in0.0 mm 0.00 in0.0 mm 0.05 in1.3 mm
10:05 PM 60.8°F16.0°C 58.8°F14.9°C 93% 4.0 mph WNW6.4 kmh WNW 11.0 mph17.7 kmh 29.99 in1015.6 mb 0.00 in0.0 mm 0.00 in0.0 mm 0.05 in1.3 mm
10:06 PM 60.8°F16.0°C 58.8°F14.9°C 93% 4.0 mph WNW6.4 kmh WNW 11.0 mph17.7 kmh 29.99 in1015.6 mb 0.00 in0.0 mm 0.00 in0.0 mm 0.05 in1.3 mm
10:07 PM 60.8°F16.0°C 58.8°F14.9°C 93% 4.0 mph W6.4 kmh W 11.0 mph17.7 kmh 29.99 in1015.6 mb 0.00 in0.0 mm 0.00 in0.0 mm 0.05 in1.3 mm
10:08 PM 60.8°F16.0°C 58.8°F14.9°C 93% 4.0 mph W6.4 kmh W 11.0 mph17.7 kmh 30.00 in1015.9 mb 0.00 in0.0 mm 0.00 in0.0 mm 0.05 in1.3 mm
10:09 PM 60.8°F16.0°C 58.8°F14.9°C 93% 5.0 mph W8.0 kmh W 11.0 mph17.7 kmh 30.00 in1015.9 mb 0.00 in0.0 mm 0.00 in0.0 mm 0.05 in1.3 mm
10:10 PM 60.7°F15.9°C 58.7°F14.8°C 93% 5.0 mph W8.0 kmh W 11.0 mph17.7 kmh 30.00 in1015.9 mb 0.00 in0.0 mm 0.00 in0.0 mm 0.05 in1.3 mm
10:11 PM 60.7°F15.9°C 58.7°F14.8°C 93% 4.0 mph W6.4 kmh W 10.0 mph16.1 kmh 30.00 in1015.9 mb 0.00 in0.0 mm 0.00 in0.0 mm 0.05 in1.3 mm
10:12 PM 60.7°F15.9°C 58.7°F14.8°C 93% 4.0 mph W6.4 kmh W 10.0 mph16.1 kmh 30.00 in1015.9 mb 0.00 in0.0 mm 0.00 in0.0 mm 0.05 in1.3 mm
10:13 PM 60.7°F15.9°C 58.7°F14.8°C 93% 5.0 mph W8.0 kmh W 10.0 mph16.1 kmh 30.00 in1015.9 mb 0.00 in0.0 mm 0.00 in0.0 mm 0.05 in1.3 mm
10:14 PM 60.7°F15.9°C 58.7°F14.8°C 93% 5.0 mph W8.0 kmh W 10.0 mph16.1 kmh 30.00 in1015.9 mb 0.00 in0.0 mm 0.00 in0.0 mm 0.05 in1.3 mm
10:15 PM 60.7°F15.9°C 58.7°F14.8°C 93% 5.0 mph W8.0 kmh W 10.0 mph16.1 kmh 30.00 in1015.9 mb 0.00 in0.0 mm 0.00 in0.0 mm 0.05 in1.3 mm
10:16 PM 60.7°F15.9°C 58.7°F14.8°C 93% 5.0 mph WNW8.0 kmh WNW 10.0 mph16.1 kmh 30.00 in1015.9 mb 0.00 in0.0 mm 0.00 in0.0 mm 0.05 in1.3 mm
10:17 PM 60.7°F15.9°C 58.7°F14.8°C 93% 4.0 mph WNW6.4 kmh WNW 10.0 mph16.1 kmh 29.99 in1015.6 mb 0.00 in0.0 mm 0.00 in0.0 mm 0.05 in1.3 mm
10:18 PM 60.7°F15.9°C 58.7°F14.8°C 93% 4.0 mph WNW6.4 kmh WNW 10.0 mph16.1 kmh 29.99 in1015.6 mb 0.00 in0.0 mm 0.00 in0.0 mm 0.05 in1.3 mm
10:19 PM 60.6°F15.9°C 58.6°F14.8°C 93% 4.0 mph WNW6.4 kmh WNW 9.0 mph14.5 kmh 29.99 in1015.6 mb 0.00 in0.0 mm 0.00 in0.0 mm 0.05 in1.3 mm
10:20 PM 60.6°F15.9°C 58.6°F14.8°C 93% 4.0 mph WNW6.4 kmh WNW 9.0 mph14.5 kmh 30.00 in1015.9 mb 0.00 in0.0 mm 0.00 in0.0 mm 0.05 in1.3 mm
10:21 PM 60.6°F15.9°C 58.6°F14.8°C 93% 4.0 mph WNW6.4 kmh WNW 9.0 mph14.5 kmh 30.00 in1015.9 mb 0.00 in0.0 mm 0.00 in0.0 mm 0.05 in1.3 mm
10:22 PM 60.5°F15.8°C 58.5°F14.7°C 93% 4.0 mph W6.4 kmh W 9.0 mph14.5 kmh 30.00 in1015.9 mb 0.00 in0.0 mm 0.00 in0.0 mm 0.05 in1.3 mm
10:23 PM 60.5°F15.8°C 58.5°F14.7°C 93% 4.0 mph W6.4 kmh W 8.0 mph12.9 kmh 30.00 in1015.9 mb 0.00 in0.0 mm 0.00 in0.0 mm 0.05 in1.3 mm
10:24 PM 60.5°F15.8°C 58.5°F14.7°C 93% 4.0 mph W6.4 kmh W 9.0 mph14.5 kmh 30.00 in1015.9 mb 0.00 in0.0 mm 0.00 in0.0 mm 0.05 in1.3 mm
10:25 PM 60.5°F15.8°C 58.5°F14.7°C 93% 4.0 mph W6.4 kmh W 9.0 mph14.5 kmh 30.00 in1015.9 mb 0.00 in0.0 mm 0.00 in0.0 mm 0.05 in1.3 mm
10:26 PM 60.5°F15.8°C 58.5°F14.7°C 93% 4.0 mph W6.4 kmh W 9.0 mph14.5 kmh 30.00 in1015.9 mb 0.00 in0.0 mm 0.00 in0.0 mm 0.05 in1.3 mm
10:27 PM 60.5°F15.8°C 58.5°F14.7°C 93% 4.0 mph W6.4 kmh W 9.0 mph14.5 kmh 30.00 in1015.9 mb 0.00 in0.0 mm 0.00 in0.0 mm 0.05 in1.3 mm
10:28 PM 60.4°F15.8°C 58.4°F14.7°C 93% 4.0 mph W6.4 kmh W 9.0 mph14.5 kmh 30.00 in1015.9 mb 0.00 in0.0 mm 0.00 in0.0 mm 0.05 in1.3 mm
10:29 PM 60.4°F15.8°C 58.4°F14.7°C 93% 4.0 mph W6.4 kmh W 9.0 mph14.5 kmh 30.00 in1015.9 mb 0.00 in0.0 mm 0.00 in0.0 mm 0.05 in1.3 mm
10:30 PM 60.4°F15.8°C 58.4°F14.7°C 93% 4.0 mph WNW6.4 kmh WNW 9.0 mph14.5 kmh 30.00 in1015.9 mb 0.00 in0.0 mm 0.00 in0.0 mm 0.05 in1.3 mm
10:31 PM 60.4°F15.8°C 58.4°F14.7°C 93% 4.0 mph WNW6.4 kmh WNW 9.0 mph14.5 kmh 30.00 in1015.9 mb 0.00 in0.0 mm 0.00 in0.0 mm 0.05 in1.3 mm
10:32 PM 60.4°F15.8°C 58.4°F14.7°C 93% 4.0 mph WNW6.4 kmh WNW 9.0 mph14.5 kmh 30.00 in1015.9 mb 0.00 in0.0 mm 0.00 in0.0 mm 0.05 in1.3 mm
10:33 PM 60.3°F15.7°C 58.3°F14.6°C 93% 3.0 mph WNW4.8 kmh WNW 9.0 mph14.5 kmh 30.00 in1015.9 mb 0.00 in0.0 mm 0.00 in0.0 mm 0.05 in1.3 mm
10:34 PM 60.3°F15.7°C 58.3°F14.6°C 93% 3.0 mph WNW4.8 kmh WNW 8.0 mph12.9 kmh 30.00 in1015.9 mb 0.00 in0.0 mm 0.00 in0.0 mm 0.05 in1.3 mm
10:35 PM 60.3°F15.7°C 58.3°F14.6°C 93% 3.0 mph WNW4.8 kmh WNW 8.0 mph12.9 kmh 30.00 in1015.9 mb 0.00 in0.0 mm 0.00 in0.0 mm 0.05 in1.3 mm
10:36 PM 60.3°F15.7°C 58.3°F14.6°C 93% 3.0 mph WNW4.8 kmh WNW 8.0 mph12.9 kmh 30.00 in1015.9 mb 0.00 in0.0 mm 0.00 in0.0 mm 0.05 in1.3 mm
10:37 PM 60.3°F15.7°C 58.3°F14.6°C 93% 3.0 mph WNW4.8 kmh WNW 8.0 mph12.9 kmh 30.00 in1015.9 mb 0.00 in0.0 mm 0.00 in0.0 mm 0.05 in1.3 mm
10:38 PM 60.2°F15.7°C 58.2°F14.6°C 93% 3.0 mph WNW4.8 kmh WNW 8.0 mph12.9 kmh 30.00 in1015.9 mb 0.00 in0.0 mm 0.00 in0.0 mm 0.05 in1.3 mm
10:39 PM 60.2°F15.7°C 58.2°F14.6°C 93% 4.0 mph W6.4 kmh W 14.0 mph22.5 kmh 30.00 in1015.9 mb 0.00 in0.0 mm 0.00 in0.0 mm 0.05 in1.3 mm
10:40 PM 60.2°F15.7°C 58.2°F14.6°C 93% 4.0 mph W6.4 kmh W 14.0 mph22.5 kmh 30.00 in1015.9 mb 0.00 in0.0 mm 0.00 in0.0 mm 0.05 in1.3 mm
10:41 PM 60.2°F15.7°C 58.2°F14.6°C 93% 4.0 mph W6.4 kmh W 14.0 mph22.5 kmh 30.00 in1015.9 mb 0.00 in0.0 mm 0.00 in0.0 mm 0.05 in1.3 mm
10:42 PM 60.2°F15.7°C 58.2°F14.6°C 93% 5.0 mph W8.0 kmh W 14.0 mph22.5 kmh 30.00 in1015.9 mb 0.00 in0.0 mm 0.00 in0.0 mm 0.05 in1.3 mm
10:43 PM 60.2°F15.7°C 58.2°F14.6°C 93% 5.0 mph W8.0 kmh W 14.0 mph22.5 kmh 30.00 in1015.9 mb 0.00 in0.0 mm 0.00 in0.0 mm 0.05 in1.3 mm
10:44 PM 60.2°F15.7°C 58.2°F14.6°C 93% 5.0 mph W8.0 kmh W 14.0 mph22.5 kmh 30.00 in1015.9 mb 0.00 in0.0 mm 0.00 in0.0 mm 0.05 in1.3 mm
10:45 PM 60.1°F15.6°C 58.1°F14.5°C 93% 5.0 mph W8.0 kmh W 14.0 mph22.5 kmh 30.00 in1015.9 mb 0.00 in0.0 mm 0.00 in0.0 mm 0.05 in1.3 mm
10:46 PM 60.1°F15.6°C 58.1°F14.5°C 93% 5.0 mph W8.0 kmh W 14.0 mph22.5 kmh 30.00 in1015.9 mb 0.00 in0.0 mm 0.00 in0.0 mm 0.05 in1.3 mm
10:47 PM 60.1°F15.6°C 58.4°F14.7°C 94% 5.0 mph W8.0 kmh W 14.0 mph22.5 kmh 30.00 in1015.9 mb 0.00 in0.0 mm 0.00 in0.0 mm 0.05 in1.3 mm
10:48 PM 60.1°F15.6°C 58.4°F14.7°C 94% 5.0 mph W8.0 kmh W 14.0 mph22.5 kmh 30.00 in1015.9 mb 0.00 in0.0 mm 0.00 in0.0 mm 0.05 in1.3 mm
10:49 PM 60.1°F15.6°C 58.4°F14.7°C 94% 5.0 mph W8.0 kmh W 10.0 mph16.1 kmh 30.00 in1015.9 mb 0.00 in0.0 mm 0.00 in0.0 mm 0.05 in1.3 mm
10:50 PM 60.0°F15.6°C 58.3°F14.6°C 94% 5.0 mph W8.0 kmh W 10.0 mph16.1 kmh 30.00 in1015.9 mb 0.00 in0.0 mm 0.00 in0.0 mm 0.05 in1.3 mm
10:51 PM 60.0°F15.6°C 58.3°F14.6°C 94% 5.0 mph W8.0 kmh W 10.0 mph16.1 kmh 30.00 in1015.9 mb 0.00 in0.0 mm 0.00 in0.0 mm 0.05 in1.3 mm
10:52 PM 60.0°F15.6°C 58.3°F14.6°C 94% 5.0 mph W8.0 kmh W 10.0 mph16.1 kmh 30.00 in1015.9 mb 0.00 in0.0 mm 0.00 in0.0 mm 0.05 in1.3 mm
10:53 PM 60.0°F15.6°C 58.3°F14.6°C 94% 5.0 mph W8.0 kmh W 10.0 mph16.1 kmh 30.00 in1015.9 mb 0.00 in0.0 mm 0.00 in0.0 mm 0.05 in1.3 mm
10:54 PM 60.0°F15.6°C 58.3°F14.6°C 94% 5.0 mph WNW8.0 kmh WNW 10.0 mph16.1 kmh 30.00 in1015.9 mb 0.00 in0.0 mm 0.00 in0.0 mm 0.05 in1.3 mm
10:55 PM 60.0°F15.6°C 58.3°F14.6°C 94% 5.0 mph WNW8.0 kmh WNW 10.0 mph16.1 kmh 30.00 in1015.9 mb 0.00 in0.0 mm 0.00 in0.0 mm 0.05 in1.3 mm